LNR186Q CYYT-LFPG
Flight info
| Callsign | LNR186Q |
|---|---|
| Flight time | 4h 38m |
| Altitude | 37000 |
| Route | YYT DCT NICSO DCT 48N050W/M083F370 50N040W 52N030W 54N020W DCT DOGAL DCT BEXET/N0470F390 DCT EVRIN DCT JETZI DCT AMFUL DCT CAWZE DCT SIRIC DCT SFD UM605 BIBAX |
| Aircraft | B77W/H-SDE1E2E3FGHIJ2J3J4J5M1RWXY/LB1D1 |
Departure
| Time | 2026-04-25 18:20 |
|---|---|
| Airport | St. John's International Airport (CYYT) |
Arrival
| Time | 2026-04-25 22:58 |
|---|---|
| Airport | Charles de Gaulle International Airport (LFPG) |
| Time | Latitude | Longitude | Altitude | Speed | Heading |
|---|---|---|---|---|---|
| 2026-04-25 17:25 | 47.61425 | -52.74468 | 453 ft | 0 kts | 173° |
| 2026-04-25 17:31 | 47.61426 | -52.74468 | 454 ft | 0 kts | 173° |
| 2026-04-25 17:41 | 47.61427 | -52.74468 | 453 ft | 0 kts | 173° |
| 2026-04-25 18:03 | 47.61432 | -52.74470 | 453 ft | 9 kts | 179° |
| 2026-04-25 18:03 | 47.61459 | -52.74471 | 452 ft | 12 kts | 186° |
| 2026-04-25 18:04 | 47.61480 | -52.74462 | 452 ft | 13 kts | 213° |
| 2026-04-25 18:04 | 47.61490 | -52.74436 | 451 ft | 10 kts | 257° |
| 2026-04-25 18:04 | 47.61492 | -52.74402 | 451 ft | 12 kts | 286° |
| 2026-04-25 18:04 | 47.61482 | -52.74366 | 450 ft | 12 kts | 293° |
| 2026-04-25 18:05 | 47.61477 | -52.74348 | 450 ft | 10 kts | 288° |
| 2026-04-25 18:05 | 47.61477 | -52.74347 | 450 ft | 0 kts | 288° |
| 2026-04-25 18:10 | 47.61486 | -52.74356 | 453 ft | 2 kts | 331° |
| 2026-04-25 18:10 | 47.61511 | -52.74352 | 453 ft | 6 kts | 15° |
| 2026-04-25 18:10 | 47.61555 | -52.74285 | 451 ft | 13 kts | 48° |
| 2026-04-25 18:10 | 47.61619 | -52.74180 | 448 ft | 14 kts | 48° |
| 2026-04-25 18:11 | 47.61704 | -52.74075 | 429 ft | 17 kts | 10° |
| 2026-04-25 18:11 | 47.61798 | -52.74166 | 426 ft | 17 kts | 315° |
| 2026-04-25 18:11 | 47.61887 | -52.74281 | 433 ft | 17 kts | 325° |
| 2026-04-25 18:11 | 47.61977 | -52.74390 | 449 ft | 17 kts | 316° |
| 2026-04-25 18:12 | 47.62063 | -52.74510 | 452 ft | 17 kts | 319° |
| 2026-04-25 18:12 | 47.62152 | -52.74625 | 457 ft | 17 kts | 323° |
| 2026-04-25 18:12 | 47.62242 | -52.74739 | 456 ft | 17 kts | 317° |
| 2026-04-25 18:12 | 47.62307 | -52.74823 | 456 ft | 4 kts | 319° |
| 2026-04-25 18:13 | 47.62308 | -52.74825 | 456 ft | 0 kts | 319° |
| 2026-04-25 18:14 | 47.62355 | -52.74885 | 454 ft | 14 kts | 319° |
| 2026-04-25 18:14 | 47.62431 | -52.74986 | 450 ft | 15 kts | 311° |
| 2026-04-25 18:14 | 47.62457 | -52.75128 | 451 ft | 15 kts | 269° |
| 2026-04-25 18:14 | 47.62457 | -52.75278 | 452 ft | 15 kts | 270° |
| 2026-04-25 18:15 | 47.62447 | -52.75429 | 454 ft | 15 kts | 265° |
| 2026-04-25 18:15 | 47.62438 | -52.75579 | 461 ft | 15 kts | 265° |
| 2026-04-25 18:15 | 47.62430 | -52.75727 | 467 ft | 15 kts | 265° |
| 2026-04-25 18:15 | 47.62422 | -52.75878 | 471 ft | 15 kts | 266° |
| 2026-04-25 18:16 | 47.62416 | -52.76028 | 474 ft | 15 kts | 266° |
| 2026-04-25 18:16 | 47.62410 | -52.76179 | 476 ft | 15 kts | 266° |
| 2026-04-25 18:16 | 47.62398 | -52.76481 | 479 ft | 15 kts | 266° |
| 2026-04-25 18:17 | 47.62392 | -52.76631 | 472 ft | 15 kts | 266° |
| 2026-04-25 18:17 | 47.62385 | -52.76785 | 473 ft | 16 kts | 263° |
| 2026-04-25 18:17 | 47.62345 | -52.76940 | 470 ft | 17 kts | 218° |
| 2026-04-25 18:17 | 47.62312 | -52.77086 | 470 ft | 17 kts | 298° |
| 2026-04-25 18:18 | 47.62361 | -52.77089 | 469 ft | 7 kts | 58° |
| 2026-04-25 18:18 | 47.62371 | -52.77022 | 468 ft | 7 kts | 85° |
| 2026-04-25 18:18 | 47.62372 | -52.76990 | 467 ft | 0 kts | 86° |
| 2026-04-25 18:18 | 47.62372 | -52.76991 | 467 ft | 0 kts | 86° |
| 2026-04-25 18:19 | 47.62377 | -52.76897 | 469 ft | 40 kts | 86° |
| 2026-04-25 18:19 | 47.62419 | -52.76048 | 476 ft | 124 kts | 85° |
| 2026-04-25 18:19 | 47.62514 | -52.74375 | 492 ft | 192 kts | 83° |
| 2026-04-25 18:19 | 47.62590 | -52.72312 | 1009 ft | 211 kts | 79° |
| 2026-04-25 18:20 | 47.62746 | -52.70162 | 2076 ft | 204 kts | 76° |
| 2026-04-25 18:20 | 47.62903 | -52.68015 | 2714 ft | 220 kts | 77° |
| 2026-04-25 18:20 | 47.62889 | -52.65661 | 3134 ft | 239 kts | 94° |
| 2026-04-25 18:20 | 47.62459 | -52.63221 | 3859 ft | 249 kts | 99° |
| 2026-04-25 18:21 | 47.61936 | -52.60717 | 4544 ft | 258 kts | 100° |
| 2026-04-25 18:21 | 47.61402 | -52.58177 | 5329 ft | 264 kts | 100° |
| 2026-04-25 18:21 | 47.60861 | -52.55562 | 6182 ft | 266 kts | 100° |
| 2026-04-25 18:21 | 47.60325 | -52.52916 | 6963 ft | 270 kts | 99° |
| 2026-04-25 18:22 | 47.59787 | -52.50216 | 7720 ft | 275 kts | 99° |
| 2026-04-25 18:22 | 47.59605 | -52.49296 | 7987 ft | 276 kts | 99° |
| 2026-04-25 18:22 | 47.58705 | -52.44702 | 9250 ft | 282 kts | 99° |
| 2026-04-25 18:22 | 47.58157 | -52.41885 | 9963 ft | 286 kts | 99° |
| 2026-04-25 18:23 | 47.57610 | -52.39056 | 10538 ft | 297 kts | 100° |
| 2026-04-25 18:23 | 47.57023 | -52.35988 | 10752 ft | 322 kts | 100° |
| 2026-04-25 18:23 | 47.56384 | -52.32659 | 10964 ft | 348 kts | 101° |
| 2026-04-25 18:23 | 47.55696 | -52.29101 | 11348 ft | 367 kts | 101° |
| 2026-04-25 18:24 | 47.54978 | -52.25415 | 12100 ft | 377 kts | 102° |
| 2026-04-25 18:24 | 47.54243 | -52.21661 | 12947 ft | 383 kts | 101° |
| 2026-04-25 18:24 | 47.53496 | -52.17846 | 13823 ft | 387 kts | 101° |
| 2026-04-25 18:24 | 47.52752 | -52.14040 | 14675 ft | 390 kts | 101° |
| 2026-04-25 18:25 | 47.51995 | -52.10167 | 15503 ft | 395 kts | 101° |
| 2026-04-25 18:25 | 47.51224 | -52.06226 | 16297 ft | 400 kts | 101° |
| 2026-04-25 18:25 | 47.50650 | -52.02231 | 16947 ft | 398 kts | 89° |
| 2026-04-25 18:25 | 47.50737 | -51.98145 | 17686 ft | 396 kts | 77° |
| 2026-04-25 18:26 | 47.51386 | -51.94230 | 18409 ft | 389 kts | 65° |
| 2026-04-25 18:26 | 47.52356 | -51.90510 | 19024 ft | 393 kts | 64° |
| 2026-04-25 18:26 | 47.53368 | -51.86726 | 19697 ft | 397 kts | 64° |
| 2026-04-25 18:26 | 47.54385 | -51.82919 | 20583 ft | 396 kts | 63° |
| 2026-04-25 18:27 | 47.55396 | -51.79106 | 21323 ft | 399 kts | 63° |
| 2026-04-25 18:27 | 47.56411 | -51.75250 | 21964 ft | 404 kts | 63° |
| 2026-04-25 18:27 | 47.57431 | -51.71345 | 22598 ft | 408 kts | 63° |
| 2026-04-25 18:27 | 47.58456 | -51.67394 | 23183 ft | 412 kts | 63° |
| 2026-04-25 18:28 | 47.59470 | -51.63461 | 23788 ft | 415 kts | 63° |
| 2026-04-25 18:28 | 47.60500 | -51.59452 | 24320 ft | 418 kts | 63° |
| 2026-04-25 18:28 | 47.61539 | -51.55403 | 24803 ft | 422 kts | 63° |
| 2026-04-25 18:29 | 47.63647 | -51.47161 | 25711 ft | 431 kts | 63° |
| 2026-04-25 18:29 | 47.64712 | -51.42985 | 26213 ft | 434 kts | 63° |
| 2026-04-25 18:30 | 47.67932 | -51.30291 | 26275 ft | 435 kts | 64° |
| 2026-04-25 18:30 | 47.68980 | -51.26140 | 26283 ft | 434 kts | 64° |
| 2026-04-25 18:30 | 47.70045 | -51.21924 | 26286 ft | 435 kts | 64° |
| 2026-04-25 18:30 | 47.71106 | -51.17718 | 26286 ft | 436 kts | 64° |
| 2026-04-25 18:31 | 47.72170 | -51.13492 | 26283 ft | 436 kts | 64° |
| 2026-04-25 18:31 | 47.73234 | -51.09261 | 26275 ft | 437 kts | 64° |
| 2026-04-25 18:31 | 47.74296 | -51.05027 | 26297 ft | 437 kts | 64° |
| 2026-04-25 18:31 | 47.75354 | -51.00800 | 26275 ft | 437 kts | 64° |
| 2026-04-25 18:32 | 47.76352 | -50.96802 | 26273 ft | 437 kts | 64° |
| 2026-04-25 18:32 | 47.77409 | -50.92565 | 26270 ft | 436 kts | 64° |
| 2026-04-25 18:32 | 47.78449 | -50.88385 | 26260 ft | 436 kts | 64° |
| 2026-04-25 18:32 | 47.79501 | -50.84149 | 26264 ft | 435 kts | 64° |
| 2026-04-25 18:33 | 47.80551 | -50.79913 | 26264 ft | 435 kts | 64° |
| 2026-04-25 18:33 | 47.81596 | -50.75692 | 26263 ft | 434 kts | 64° |
| 2026-04-25 18:33 | 47.82627 | -50.71516 | 26273 ft | 435 kts | 65° |
| 2026-04-25 18:33 | 47.83673 | -50.67278 | 26262 ft | 435 kts | 65° |
| 2026-04-25 18:34 | 47.84713 | -50.63056 | 26275 ft | 435 kts | 65° |
| 2026-04-25 18:34 | 47.85757 | -50.58807 | 26254 ft | 436 kts | 66° |
| 2026-04-25 18:34 | 47.86787 | -50.54608 | 26264 ft | 436 kts | 66° |
| 2026-04-25 18:34 | 47.87825 | -50.50366 | 26242 ft | 436 kts | 66° |
| 2026-04-25 18:35 | 47.88864 | -50.46113 | 26256 ft | 436 kts | 66° |
| 2026-04-25 18:35 | 47.89906 | -50.41840 | 26255 ft | 437 kts | 66° |
| 2026-04-25 18:35 | 47.90934 | -50.37617 | 26244 ft | 437 kts | 66° |
| 2026-04-25 18:35 | 47.91973 | -50.33337 | 26254 ft | 437 kts | 66° |
| 2026-04-25 18:36 | 47.93009 | -50.29064 | 26240 ft | 437 kts | 66° |
| 2026-04-25 18:36 | 47.94043 | -50.24787 | 26256 ft | 437 kts | 66° |
| 2026-04-25 18:36 | 47.95076 | -50.20511 | 26248 ft | 438 kts | 66° |
| 2026-04-25 18:36 | 47.96094 | -50.16287 | 26250 ft | 438 kts | 66° |
| 2026-04-25 18:37 | 47.97126 | -50.11996 | 26245 ft | 438 kts | 66° |
| 2026-04-25 18:37 | 47.98155 | -50.07710 | 26243 ft | 438 kts | 66° |
| 2026-04-25 18:37 | 47.99186 | -50.03412 | 26250 ft | 438 kts | 67° |
| 2026-04-25 18:37 | 48.00148 | -49.99391 | 26239 ft | 438 kts | 66° |
| 2026-04-25 18:38 | 48.01189 | -49.95158 | 26241 ft | 438 kts | 66° |
| 2026-04-25 18:38 | 48.02261 | -49.90898 | 26235 ft | 437 kts | 66° |
| 2026-04-25 18:38 | 48.03343 | -49.86627 | 26250 ft | 437 kts | 66° |
| 2026-04-25 18:38 | 48.04423 | -49.82365 | 26243 ft | 437 kts | 66° |
| 2026-04-25 18:39 | 48.05493 | -49.78130 | 26254 ft | 447 kts | 68° |
| 2026-04-25 18:39 | 48.06603 | -49.73719 | 26262 ft | 455 kts | 68° |
| 2026-04-25 18:39 | 48.07717 | -49.69270 | 26250 ft | 454 kts | 68° |
| 2026-04-25 18:39 | 48.08819 | -49.64853 | 26239 ft | 452 kts | 68° |
| 2026-04-25 18:40 | 48.09901 | -49.60494 | 26231 ft | 449 kts | 68° |
| 2026-04-25 18:40 | 48.10985 | -49.56121 | 26241 ft | 448 kts | 68° |
| 2026-04-25 18:40 | 48.12070 | -49.51736 | 26244 ft | 447 kts | 68° |
| 2026-04-25 18:40 | 48.13151 | -49.47359 | 26249 ft | 447 kts | 68° |
| 2026-04-25 18:41 | 48.14230 | -49.42984 | 26251 ft | 447 kts | 68° |
| 2026-04-25 18:41 | 48.15304 | -49.38624 | 26257 ft | 449 kts | 69° |
| 2026-04-25 18:41 | 48.16020 | -49.35712 | 26254 ft | 450 kts | 69° |
| 2026-04-25 18:41 | 48.17105 | -49.31293 | 26255 ft | 452 kts | 69° |
| 2026-04-25 18:42 | 48.18190 | -49.26859 | 26256 ft | 454 kts | 69° |
| 2026-04-25 18:42 | 48.18911 | -49.23907 | 26258 ft | 455 kts | 69° |
| 2026-04-25 18:42 | 48.20718 | -49.16499 | 26261 ft | 456 kts | 69° |
| 2026-04-25 18:42 | 48.21439 | -49.13535 | 26256 ft | 456 kts | 69° |
| 2026-04-25 18:43 | 48.22527 | -49.09055 | 26254 ft | 456 kts | 69° |
| 2026-04-25 18:43 | 48.23610 | -49.04587 | 26261 ft | 455 kts | 69° |
| 2026-04-25 18:43 | 48.24687 | -49.00135 | 26261 ft | 454 kts | 69° |
| 2026-04-25 18:43 | 48.25697 | -48.95950 | 26261 ft | 454 kts | 69° |
| 2026-04-25 18:44 | 48.26772 | -48.91489 | 26260 ft | 453 kts | 69° |
| 2026-04-25 18:44 | 48.27844 | -48.87030 | 26267 ft | 453 kts | 69° |
| 2026-04-25 18:44 | 48.28912 | -48.82581 | 26277 ft | 453 kts | 70° |
| 2026-04-25 18:44 | 48.29967 | -48.78176 | 26275 ft | 454 kts | 70° |
| 2026-04-25 18:45 | 48.31041 | -48.73686 | 26278 ft | 456 kts | 70° |
| 2026-04-25 18:45 | 48.32116 | -48.69180 | 26277 ft | 457 kts | 70° |
| 2026-04-25 18:45 | 48.33187 | -48.64681 | 26275 ft | 458 kts | 70° |
| 2026-04-25 18:45 | 48.34260 | -48.60164 | 26271 ft | 457 kts | 70° |
| 2026-04-25 18:46 | 48.35316 | -48.55713 | 26273 ft | 456 kts | 71° |
| 2026-04-25 18:46 | 48.36383 | -48.51203 | 26268 ft | 457 kts | 71° |
| 2026-04-25 18:46 | 48.37443 | -48.46716 | 26275 ft | 456 kts | 71° |
| 2026-04-25 18:46 | 48.38511 | -48.42180 | 26278 ft | 459 kts | 71° |
| 2026-04-25 18:47 | 48.39579 | -48.37638 | 26291 ft | 460 kts | 71° |
| 2026-04-25 18:47 | 48.40633 | -48.33141 | 26287 ft | 461 kts | 72° |
| 2026-04-25 18:47 | 48.41696 | -48.28604 | 26285 ft | 460 kts | 71° |
| 2026-04-25 18:47 | 48.42761 | -48.24048 | 26286 ft | 459 kts | 72° |
| 2026-04-25 18:48 | 48.43816 | -48.19519 | 26282 ft | 458 kts | 71° |
| 2026-04-25 18:48 | 48.44871 | -48.14985 | 26291 ft | 457 kts | 71° |
| 2026-04-25 18:48 | 48.45925 | -48.10446 | 26281 ft | 458 kts | 72° |
| 2026-04-25 18:48 | 48.46975 | -48.05910 | 26290 ft | 458 kts | 72° |
| 2026-04-25 18:49 | 48.48026 | -48.01367 | 26297 ft | 459 kts | 72° |
| 2026-04-25 18:49 | 48.49019 | -47.97061 | 26301 ft | 459 kts | 72° |
| 2026-04-25 18:49 | 48.50054 | -47.92569 | 26301 ft | 459 kts | 72° |
| 2026-04-25 18:49 | 48.51103 | -47.88004 | 26313 ft | 459 kts | 72° |
| 2026-04-25 18:50 | 48.52147 | -47.83451 | 26304 ft | 461 kts | 73° |
| 2026-04-25 18:50 | 48.53203 | -47.78823 | 26314 ft | 471 kts | 73° |
| 2026-04-25 18:50 | 48.54263 | -47.74176 | 26317 ft | 473 kts | 72° |
| 2026-04-25 18:50 | 48.55330 | -47.69493 | 26305 ft | 471 kts | 72° |
| 2026-04-25 18:51 | 48.56390 | -47.64827 | 26315 ft | 469 kts | 72° |
| 2026-04-25 18:51 | 48.57106 | -47.61674 | 26319 ft | 469 kts | 73° |
| 2026-04-25 18:51 | 48.58505 | -47.55509 | 26320 ft | 468 kts | 73° |
| 2026-04-25 18:51 | 48.59556 | -47.50856 | 26326 ft | 468 kts | 74° |
| 2026-04-25 18:52 | 48.60611 | -47.46175 | 26327 ft | 469 kts | 73° |
| 2026-04-25 18:52 | 48.61661 | -47.41498 | 26338 ft | 470 kts | 73° |
| 2026-04-25 18:52 | 48.62697 | -47.36878 | 26330 ft | 471 kts | 73° |
| 2026-04-25 18:52 | 48.63750 | -47.32169 | 26339 ft | 472 kts | 74° |
| 2026-04-25 18:53 | 48.64799 | -47.27469 | 26323 ft | 472 kts | 73° |
| 2026-04-25 18:53 | 48.65850 | -47.22750 | 26338 ft | 473 kts | 73° |
| 2026-04-25 18:53 | 48.66898 | -47.18032 | 26350 ft | 473 kts | 74° |
| 2026-04-25 18:53 | 48.67938 | -47.13348 | 26357 ft | 473 kts | 74° |
| 2026-04-25 18:54 | 48.70034 | -47.03874 | 26353 ft | 473 kts | 73° |
| 2026-04-25 18:54 | 48.71018 | -46.99405 | 26352 ft | 473 kts | 74° |
| 2026-04-25 18:54 | 48.72046 | -46.94726 | 26356 ft | 473 kts | 75° |
| 2026-04-25 18:55 | 48.73097 | -46.89933 | 26364 ft | 473 kts | 73° |
| 2026-04-25 18:55 | 48.74118 | -46.85268 | 26363 ft | 472 kts | 75° |
| 2026-04-25 18:55 | 48.75149 | -46.80534 | 26353 ft | 473 kts | 74° |
| 2026-04-25 18:55 | 48.76183 | -46.75787 | 26354 ft | 475 kts | 74° |
| 2026-04-25 18:56 | 48.77224 | -46.71002 | 26364 ft | 477 kts | 74° |
| 2026-04-25 18:56 | 48.78252 | -46.66273 | 26381 ft | 479 kts | 74° |
| 2026-04-25 18:56 | 48.79293 | -46.61462 | 26382 ft | 480 kts | 74° |
| 2026-04-25 18:56 | 48.80333 | -46.56638 | 26387 ft | 481 kts | 75° |
| 2026-04-25 18:57 | 48.81373 | -46.51811 | 26377 ft | 481 kts | 75° |
| 2026-04-25 18:57 | 48.82412 | -46.46967 | 26381 ft | 480 kts | 74° |
| 2026-04-25 18:57 | 48.83434 | -46.42198 | 26380 ft | 479 kts | 74° |
| 2026-04-25 18:57 | 48.84116 | -46.39006 | 26367 ft | 479 kts | 75° |
| 2026-04-25 18:58 | 48.85489 | -46.32579 | 26391 ft | 478 kts | 75° |
| 2026-04-25 18:58 | 48.87535 | -46.22954 | 26403 ft | 477 kts | 75° |
| 2026-04-25 18:58 | 48.88540 | -46.18209 | 26390 ft | 477 kts | 75° |
| 2026-04-25 18:59 | 48.90569 | -46.08596 | 26409 ft | 477 kts | 75° |
| 2026-04-25 18:59 | 48.92544 | -45.99191 | 26415 ft | 478 kts | 75° |
| 2026-04-25 19:00 | 48.94552 | -45.89590 | 26413 ft | 478 kts | 76° |
| 2026-04-25 19:00 | 48.95561 | -45.84745 | 26417 ft | 478 kts | 76° |
| 2026-04-25 19:01 | 48.97567 | -45.75080 | 26429 ft | 478 kts | 76° |
| 2026-04-25 19:01 | 48.98551 | -45.70321 | 26432 ft | 478 kts | 76° |
| 2026-04-25 19:01 | 48.99552 | -45.65465 | 26423 ft | 479 kts | 76° |
| 2026-04-25 19:01 | 49.00547 | -45.60633 | 26436 ft | 479 kts | 76° |
| 2026-04-25 19:02 | 49.02533 | -45.50949 | 26409 ft | 478 kts | 76° |
| 2026-04-25 19:02 | 49.03523 | -45.46105 | 26430 ft | 477 kts | 76° |
| 2026-04-25 19:02 | 49.04506 | -45.41282 | 26436 ft | 476 kts | 76° |
| 2026-04-25 19:03 | 49.05806 | -45.34886 | 26439 ft | 476 kts | 76° |
| 2026-04-25 19:03 | 49.07429 | -45.26867 | 26450 ft | 475 kts | 77° |
| 2026-04-25 19:03 | 49.08404 | -45.22038 | 26450 ft | 475 kts | 77° |
| 2026-04-25 19:04 | 49.10344 | -45.12385 | 26453 ft | 476 kts | 77° |
| 2026-04-25 19:04 | 49.11313 | -45.07549 | 26440 ft | 476 kts | 77° |
| 2026-04-25 19:05 | 49.13192 | -44.98136 | 26455 ft | 476 kts | 77° |
| 2026-04-25 19:05 | 49.15105 | -44.88507 | 26465 ft | 477 kts | 77° |
| 2026-04-25 19:05 | 49.16066 | -44.83650 | 26465 ft | 477 kts | 77° |
| 2026-04-25 19:06 | 49.17029 | -44.78770 | 26465 ft | 477 kts | 77° |
| 2026-04-25 19:06 | 49.18943 | -44.69035 | 26473 ft | 479 kts | 78° |
| 2026-04-25 19:06 | 49.19891 | -44.64196 | 26481 ft | 480 kts | 78° |
| 2026-04-25 19:07 | 49.21803 | -44.54397 | 26482 ft | 481 kts | 78° |
| 2026-04-25 19:07 | 49.22760 | -44.49474 | 26481 ft | 482 kts | 78° |
| 2026-04-25 19:08 | 49.24658 | -44.39681 | 26484 ft | 482 kts | 78° |
| 2026-04-25 19:08 | 49.25608 | -44.34758 | 26481 ft | 482 kts | 78° |
| 2026-04-25 19:09 | 49.28446 | -44.19976 | 26456 ft | 480 kts | 78° |
| 2026-04-25 19:09 | 49.29070 | -44.16710 | 26471 ft | 480 kts | 78° |
| 2026-04-25 19:09 | 49.31244 | -44.05283 | 26487 ft | 479 kts | 78° |
| 2026-04-25 19:10 | 49.32173 | -44.00378 | 26496 ft | 479 kts | 78° |
| 2026-04-25 19:10 | 49.33051 | -43.95729 | 26494 ft | 479 kts | 78° |
| 2026-04-25 19:10 | 49.33978 | -43.90810 | 26499 ft | 480 kts | 78° |
| 2026-04-25 19:10 | 49.34891 | -43.85951 | 26500 ft | 480 kts | 79° |
| 2026-04-25 19:11 | 49.35816 | -43.81020 | 26506 ft | 480 kts | 79° |
| 2026-04-25 19:11 | 49.36738 | -43.76088 | 26505 ft | 480 kts | 79° |
| 2026-04-25 19:11 | 49.37657 | -43.71163 | 26462 ft | 480 kts | 79° |
| 2026-04-25 19:11 | 49.38566 | -43.66277 | 26497 ft | 481 kts | 79° |
| 2026-04-25 19:12 | 49.39483 | -43.61327 | 26503 ft | 482 kts | 79° |
| 2026-04-25 19:12 | 49.40403 | -43.56351 | 26511 ft | 483 kts | 79° |
| 2026-04-25 19:12 | 49.41322 | -43.51373 | 26514 ft | 485 kts | 79° |
| 2026-04-25 19:12 | 49.42243 | -43.46364 | 26517 ft | 485 kts | 80° |
| 2026-04-25 19:13 | 49.43151 | -43.41421 | 26512 ft | 486 kts | 80° |
| 2026-04-25 19:13 | 49.44067 | -43.36419 | 26513 ft | 486 kts | 80° |
| 2026-04-25 19:13 | 49.44980 | -43.31417 | 26512 ft | 485 kts | 80° |
| 2026-04-25 19:13 | 49.45892 | -43.26414 | 26488 ft | 485 kts | 81° |
| 2026-04-25 19:14 | 49.46799 | -43.21426 | 26520 ft | 484 kts | 81° |
| 2026-04-25 19:14 | 49.47094 | -43.19795 | 26514 ft | 485 kts | 81° |
| 2026-04-25 19:14 | 49.48595 | -43.11484 | 26521 ft | 485 kts | 81° |
| 2026-04-25 19:14 | 49.49496 | -43.06478 | 26519 ft | 485 kts | 81° |
| 2026-04-25 19:15 | 49.50394 | -43.01475 | 26529 ft | 485 kts | 81° |
| 2026-04-25 19:15 | 49.51247 | -42.96713 | 26528 ft | 485 kts | 81° |
| 2026-04-25 19:15 | 49.52144 | -42.91685 | 26527 ft | 489 kts | 81° |
| 2026-04-25 19:15 | 49.53040 | -42.86624 | 26536 ft | 502 kts | 81° |
| 2026-04-25 19:16 | 49.53964 | -42.81384 | 26504 ft | 513 kts | 82° |
| 2026-04-25 19:16 | 49.54905 | -42.76064 | 26515 ft | 514 kts | 82° |
| 2026-04-25 19:16 | 49.55848 | -42.70738 | 26526 ft | 514 kts | 82° |
| 2026-04-25 19:16 | 49.56788 | -42.65420 | 26528 ft | 514 kts | 82° |
| 2026-04-25 19:17 | 49.57727 | -42.60097 | 26506 ft | 514 kts | 83° |
| 2026-04-25 19:17 | 49.58661 | -42.54773 | 26525 ft | 515 kts | 83° |
| 2026-04-25 19:17 | 49.59593 | -42.49432 | 26530 ft | 516 kts | 83° |
| 2026-04-25 19:17 | 49.60513 | -42.44135 | 26543 ft | 517 kts | 83° |
| 2026-04-25 19:18 | 49.61445 | -42.38753 | 26537 ft | 518 kts | 83° |
| 2026-04-25 19:18 | 49.62375 | -42.33373 | 26522 ft | 518 kts | 83° |
| 2026-04-25 19:18 | 49.63302 | -42.27993 | 26531 ft | 519 kts | 83° |
| 2026-04-25 19:18 | 49.64225 | -42.22620 | 26535 ft | 519 kts | 83° |
| 2026-04-25 19:19 | 49.65139 | -42.17284 | 26540 ft | 519 kts | 83° |
| 2026-04-25 19:19 | 49.66062 | -42.11884 | 26546 ft | 519 kts | 83° |
| 2026-04-25 19:19 | 49.66978 | -42.06501 | 26542 ft | 519 kts | 84° |
| 2026-04-25 19:19 | 49.67287 | -42.04683 | 26541 ft | 519 kts | 84° |
| 2026-04-25 19:20 | 49.68765 | -41.95962 | 26542 ft | 518 kts | 84° |
| 2026-04-25 19:20 | 49.69673 | -41.90576 | 26491 ft | 518 kts | 84° |
| 2026-04-25 19:20 | 49.70570 | -41.85250 | 26534 ft | 517 kts | 84° |
| 2026-04-25 19:20 | 49.71474 | -41.79856 | 26543 ft | 517 kts | 84° |
| 2026-04-25 19:21 | 49.72375 | -41.74456 | 26551 ft | 517 kts | 84° |
| 2026-04-25 19:21 | 49.74168 | -41.63662 | 26549 ft | 518 kts | 84° |
| 2026-04-25 19:21 | 49.75060 | -41.58272 | 26549 ft | 518 kts | 84° |
| 2026-04-25 19:22 | 49.75952 | -41.52864 | 26515 ft | 518 kts | 84° |
| 2026-04-25 19:22 | 49.76828 | -41.47542 | 26547 ft | 518 kts | 84° |
| 2026-04-25 19:22 | 49.78595 | -41.36742 | 26552 ft | 518 kts | 85° |
| 2026-04-25 19:23 | 49.79478 | -41.31318 | 26558 ft | 519 kts | 85° |
| 2026-04-25 19:23 | 49.81240 | -41.20445 | 26564 ft | 521 kts | 85° |
| 2026-04-25 19:23 | 49.82121 | -41.14983 | 26556 ft | 521 kts | 85° |
| 2026-04-25 19:24 | 49.82997 | -41.09533 | 26554 ft | 521 kts | 85° |
| 2026-04-25 19:24 | 49.83873 | -41.04071 | 26563 ft | 521 kts | 85° |
| 2026-04-25 19:24 | 49.85551 | -40.93554 | 26526 ft | 520 kts | 85° |
| 2026-04-25 19:25 | 49.87282 | -40.82631 | 26557 ft | 521 kts | 85° |
| 2026-04-25 19:25 | 49.88133 | -40.77228 | 26562 ft | 521 kts | 85° |
| 2026-04-25 19:25 | 49.88989 | -40.71772 | 26561 ft | 522 kts | 85° |
| 2026-04-25 19:26 | 49.89847 | -40.66294 | 26565 ft | 522 kts | 85° |
| 2026-04-25 19:26 | 49.90704 | -40.60802 | 26565 ft | 522 kts | 85° |
| 2026-04-25 19:26 | 49.91558 | -40.55316 | 26566 ft | 522 kts | 85° |
| 2026-04-25 19:26 | 49.92121 | -40.51689 | 26531 ft | 522 kts | 85° |
| 2026-04-25 19:27 | 49.93245 | -40.44415 | 26531 ft | 522 kts | 85° |
| 2026-04-25 19:27 | 49.93530 | -40.42562 | 26546 ft | 522 kts | 85° |
| 2026-04-25 19:27 | 49.94658 | -40.35223 | 26564 ft | 524 kts | 85° |
| 2026-04-25 19:27 | 49.95777 | -40.27904 | 26574 ft | 525 kts | 85° |
| 2026-04-25 19:28 | 49.96336 | -40.24239 | 26577 ft | 526 kts | 85° |
| 2026-04-25 19:28 | 49.97177 | -40.18704 | 26577 ft | 526 kts | 85° |
| 2026-04-25 19:28 | 49.98016 | -40.13175 | 26578 ft | 527 kts | 85° |
| 2026-04-25 19:28 | 49.98855 | -40.07625 | 26574 ft | 526 kts | 85° |
| 2026-04-25 19:29 | 49.99701 | -40.02085 | 26580 ft | 527 kts | 84° |
| 2026-04-25 19:29 | 50.00683 | -39.96897 | 26588 ft | 533 kts | 78° |
| 2026-04-25 19:29 | 50.02010 | -39.91485 | 26592 ft | 536 kts | 76° |
| 2026-04-25 19:29 | 50.03377 | -39.86154 | 26591 ft | 536 kts | 76° |
| 2026-04-25 19:30 | 50.04772 | -39.80765 | 26588 ft | 536 kts | 76° |
| 2026-04-25 19:30 | 50.06164 | -39.75357 | 26585 ft | 536 kts | 76° |
| 2026-04-25 19:30 | 50.07541 | -39.69950 | 26590 ft | 535 kts | 76° |
| 2026-04-25 19:30 | 50.08900 | -39.64555 | 26586 ft | 535 kts | 76° |
| 2026-04-25 19:31 | 50.10247 | -39.59153 | 26571 ft | 534 kts | 76° |
| 2026-04-25 19:31 | 50.11569 | -39.53824 | 26581 ft | 534 kts | 76° |
| 2026-04-25 19:31 | 50.12904 | -39.48416 | 26589 ft | 533 kts | 76° |
| 2026-04-25 19:31 | 50.14235 | -39.43015 | 26599 ft | 533 kts | 76° |
| 2026-04-25 19:32 | 50.15567 | -39.37594 | 26599 ft | 533 kts | 76° |
| 2026-04-25 19:32 | 50.16897 | -39.32171 | 26608 ft | 534 kts | 76° |
| 2026-04-25 19:32 | 50.18222 | -39.26761 | 26607 ft | 534 kts | 76° |
| 2026-04-25 19:32 | 50.19099 | -39.23172 | 26602 ft | 534 kts | 76° |
| 2026-04-25 19:33 | 50.20850 | -39.15992 | 26564 ft | 533 kts | 76° |
| 2026-04-25 19:33 | 50.22175 | -39.10549 | 26597 ft | 532 kts | 76° |
| 2026-04-25 19:33 | 50.23488 | -39.05144 | 26607 ft | 532 kts | 76° |
| 2026-04-25 19:33 | 50.24762 | -38.99879 | 26606 ft | 532 kts | 76° |
| 2026-04-25 19:34 | 50.26027 | -38.94640 | 26610 ft | 532 kts | 76° |
| 2026-04-25 19:34 | 50.27333 | -38.89219 | 26602 ft | 532 kts | 76° |
| 2026-04-25 19:34 | 50.28621 | -38.83857 | 26614 ft | 533 kts | 76° |
| 2026-04-25 19:34 | 50.29925 | -38.78412 | 26617 ft | 534 kts | 76° |
| 2026-04-25 19:35 | 50.31227 | -38.72968 | 26598 ft | 533 kts | 76° |
| 2026-04-25 19:35 | 50.32531 | -38.67499 | 26612 ft | 533 kts | 76° |
| 2026-04-25 19:35 | 50.33822 | -38.62073 | 26614 ft | 533 kts | 76° |
| 2026-04-25 19:35 | 50.35115 | -38.56626 | 26622 ft | 533 kts | 76° |
| 2026-04-25 19:36 | 50.36391 | -38.51237 | 26624 ft | 533 kts | 76° |
| 2026-04-25 19:36 | 50.37679 | -38.45780 | 26623 ft | 533 kts | 76° |
| 2026-04-25 19:36 | 50.38963 | -38.40332 | 26626 ft | 533 kts | 76° |
| 2026-04-25 19:36 | 50.40245 | -38.34873 | 26601 ft | 532 kts | 76° |
| 2026-04-25 19:37 | 50.41523 | -38.29423 | 26618 ft | 532 kts | 76° |
| 2026-04-25 19:37 | 50.42801 | -38.23954 | 26628 ft | 533 kts | 76° |
| 2026-04-25 19:37 | 50.44072 | -38.18499 | 26634 ft | 533 kts | 76° |
| 2026-04-25 19:37 | 50.45332 | -38.13080 | 26634 ft | 534 kts | 76° |
| 2026-04-25 19:38 | 50.46602 | -38.07603 | 26636 ft | 534 kts | 76° |
| 2026-04-25 19:38 | 50.47874 | -38.02104 | 26637 ft | 534 kts | 76° |
| 2026-04-25 19:38 | 50.49070 | -37.96924 | 26638 ft | 534 kts | 76° |
| 2026-04-25 19:38 | 50.50335 | -37.91430 | 26605 ft | 534 kts | 76° |
| 2026-04-25 19:39 | 50.51595 | -37.85938 | 26643 ft | 534 kts | 75° |
| 2026-04-25 19:39 | 50.52852 | -37.80455 | 26646 ft | 533 kts | 75° |
| 2026-04-25 19:39 | 50.54093 | -37.75025 | 26654 ft | 533 kts | 75° |
| 2026-04-25 19:39 | 50.55343 | -37.69537 | 26656 ft | 533 kts | 75° |
| 2026-04-25 19:40 | 50.56592 | -37.64043 | 26655 ft | 533 kts | 75° |
| 2026-04-25 19:40 | 50.57838 | -37.58547 | 26652 ft | 533 kts | 76° |
| 2026-04-25 19:40 | 50.59084 | -37.53037 | 26659 ft | 533 kts | 76° |
| 2026-04-25 19:40 | 50.60319 | -37.47554 | 26618 ft | 532 kts | 75° |
| 2026-04-25 19:41 | 50.61554 | -37.42066 | 26652 ft | 531 kts | 75° |
| 2026-04-25 19:41 | 50.62787 | -37.36570 | 26662 ft | 530 kts | 75° |
| 2026-04-25 19:41 | 50.64014 | -37.31089 | 26669 ft | 529 kts | 75° |
| 2026-04-25 19:41 | 50.64821 | -37.27476 | 26668 ft | 529 kts | 75° |
| 2026-04-25 19:42 | 50.66438 | -37.20210 | 26673 ft | 529 kts | 75° |
| 2026-04-25 19:42 | 50.67654 | -37.14733 | 26673 ft | 528 kts | 75° |
| 2026-04-25 19:42 | 50.68862 | -37.09272 | 26673 ft | 528 kts | 75° |
| 2026-04-25 19:42 | 50.70074 | -37.03785 | 26640 ft | 528 kts | 75° |
| 2026-04-25 19:43 | 50.71206 | -36.98645 | 26664 ft | 527 kts | 75° |
| 2026-04-25 19:43 | 50.72410 | -36.93165 | 26680 ft | 527 kts | 75° |
| 2026-04-25 19:43 | 50.73610 | -36.87685 | 26690 ft | 527 kts | 75° |
| 2026-04-25 19:43 | 50.74808 | -36.82201 | 26693 ft | 528 kts | 75° |
| 2026-04-25 19:44 | 50.76001 | -36.76727 | 26696 ft | 528 kts | 75° |
| 2026-04-25 19:44 | 50.77193 | -36.71242 | 26697 ft | 528 kts | 75° |
| 2026-04-25 19:44 | 50.78368 | -36.65821 | 26700 ft | 528 kts | 75° |
| 2026-04-25 19:44 | 50.79561 | -36.60305 | 26673 ft | 528 kts | 75° |
| 2026-04-25 19:45 | 50.80748 | -36.54798 | 26708 ft | 528 kts | 75° |
| 2026-04-25 19:45 | 50.81933 | -36.49288 | 26710 ft | 528 kts | 75° |
| 2026-04-25 19:45 | 50.83117 | -36.43773 | 26692 ft | 529 kts | 75° |
| 2026-04-25 19:45 | 50.84295 | -36.38265 | 26711 ft | 529 kts | 75° |
| 2026-04-25 19:46 | 50.85458 | -36.32814 | 26720 ft | 529 kts | 75° |
| 2026-04-25 19:46 | 50.86631 | -36.27299 | 26718 ft | 529 kts | 75° |
| 2026-04-25 19:46 | 50.87803 | -36.21774 | 26706 ft | 529 kts | 75° |
| 2026-04-25 19:46 | 50.88974 | -36.16243 | 26706 ft | 529 kts | 75° |
| 2026-04-25 19:47 | 50.90141 | -36.10709 | 26723 ft | 529 kts | 75° |
| 2026-04-25 19:47 | 50.91307 | -36.05168 | 26720 ft | 529 kts | 75° |
| 2026-04-25 19:47 | 50.92435 | -35.99792 | 26728 ft | 529 kts | 75° |
| 2026-04-25 19:47 | 50.93570 | -35.94371 | 26733 ft | 529 kts | 76° |
| 2026-04-25 19:48 | 50.94724 | -35.88839 | 26733 ft | 529 kts | 76° |
| 2026-04-25 19:48 | 50.95863 | -35.83371 | 26734 ft | 529 kts | 76° |
| 2026-04-25 19:48 | 50.97029 | -35.77754 | 26740 ft | 529 kts | 76° |
| 2026-04-25 19:48 | 50.98162 | -35.72280 | 26739 ft | 529 kts | 76° |
| 2026-04-25 19:49 | 50.99309 | -35.66720 | 26738 ft | 529 kts | 76° |
| 2026-04-25 19:49 | 50.99698 | -35.64833 | 26738 ft | 529 kts | 76° |
| 2026-04-25 19:49 | 51.01596 | -35.55594 | 26750 ft | 529 kts | 76° |
| 2026-04-25 19:49 | 51.02735 | -35.50033 | 26750 ft | 529 kts | 76° |
| 2026-04-25 19:50 | 51.05004 | -35.38898 | 26750 ft | 529 kts | 76° |
| 2026-04-25 19:50 | 51.06122 | -35.33393 | 26751 ft | 529 kts | 76° |
| 2026-04-25 19:50 | 51.07249 | -35.27823 | 26760 ft | 529 kts | 76° |
| 2026-04-25 19:51 | 51.08376 | -35.22237 | 26767 ft | 530 kts | 76° |
| 2026-04-25 19:51 | 51.09505 | -35.16628 | 26764 ft | 530 kts | 76° |
| 2026-04-25 19:51 | 51.10628 | -35.11031 | 26756 ft | 530 kts | 76° |
| 2026-04-25 19:51 | 51.11734 | -35.05508 | 26729 ft | 528 kts | 76° |
| 2026-04-25 19:52 | 51.12841 | -34.99967 | 26763 ft | 527 kts | 76° |
| 2026-04-25 19:52 | 51.13889 | -34.94703 | 26761 ft | 526 kts | 77° |
| 2026-04-25 19:52 | 51.14995 | -34.89129 | 26778 ft | 526 kts | 77° |
| 2026-04-25 19:52 | 51.16094 | -34.83573 | 26759 ft | 527 kts | 77° |
| 2026-04-25 19:53 | 51.17196 | -34.77986 | 26778 ft | 526 kts | 77° |
| 2026-04-25 19:53 | 51.18292 | -34.72413 | 26793 ft | 526 kts | 77° |
| 2026-04-25 19:53 | 51.19371 | -34.66911 | 26796 ft | 526 kts | 77° |
| 2026-04-25 19:53 | 51.20460 | -34.61340 | 26793 ft | 526 kts | 77° |
| 2026-04-25 19:54 | 51.21548 | -34.55760 | 26803 ft | 527 kts | 77° |
| 2026-04-25 19:54 | 51.22634 | -34.50177 | 26799 ft | 527 kts | 77° |
| 2026-04-25 19:54 | 51.23718 | -34.44586 | 26799 ft | 527 kts | 77° |
| 2026-04-25 19:54 | 51.24083 | -34.42697 | 26799 ft | 527 kts | 77° |
| 2026-04-25 19:55 | 51.25874 | -34.33418 | 26794 ft | 526 kts | 77° |
| 2026-04-25 19:55 | 51.26950 | -34.27821 | 26801 ft | 526 kts | 77° |
| 2026-04-25 19:55 | 51.28023 | -34.22223 | 26804 ft | 526 kts | 77° |
| 2026-04-25 19:55 | 51.29079 | -34.16699 | 26815 ft | 525 kts | 77° |
| 2026-04-25 19:56 | 51.30141 | -34.11124 | 26816 ft | 525 kts | 77° |
| 2026-04-25 19:56 | 51.31205 | -34.05521 | 26813 ft | 525 kts | 78° |
| 2026-04-25 19:56 | 51.32259 | -33.99955 | 26828 ft | 525 kts | 78° |
| 2026-04-25 19:56 | 51.33261 | -33.94647 | 26830 ft | 526 kts | 78° |
| 2026-04-25 19:57 | 51.34314 | -33.89049 | 26811 ft | 525 kts | 77° |
| 2026-04-25 19:57 | 51.35367 | -33.83445 | 26821 ft | 524 kts | 77° |
| 2026-04-25 19:57 | 51.36413 | -33.77859 | 26829 ft | 524 kts | 77° |
| 2026-04-25 19:57 | 51.37456 | -33.72268 | 26832 ft | 523 kts | 78° |
| 2026-04-25 19:58 | 51.38485 | -33.66738 | 26833 ft | 523 kts | 78° |
| 2026-04-25 19:58 | 51.39520 | -33.61158 | 26838 ft | 522 kts | 78° |
| 2026-04-25 19:58 | 51.40551 | -33.55582 | 26838 ft | 522 kts | 78° |
| 2026-04-25 19:58 | 51.41582 | -33.49989 | 26839 ft | 522 kts | 78° |
| 2026-04-25 19:59 | 51.42607 | -33.44408 | 26831 ft | 523 kts | 77° |
| 2026-04-25 19:59 | 51.43633 | -33.38805 | 26843 ft | 523 kts | 78° |
| 2026-04-25 19:59 | 51.44658 | -33.33197 | 26845 ft | 524 kts | 78° |
| 2026-04-25 19:59 | 51.45666 | -33.27657 | 26855 ft | 524 kts | 78° |
| 2026-04-25 20:00 | 51.46689 | -33.22024 | 26852 ft | 525 kts | 78° |
| 2026-04-25 20:00 | 51.47034 | -33.20119 | 26854 ft | 525 kts | 78° |
| 2026-04-25 20:00 | 51.48726 | -33.10755 | 26855 ft | 525 kts | 78° |
| 2026-04-25 20:00 | 51.49742 | -33.05106 | 26862 ft | 525 kts | 78° |
| 2026-04-25 20:01 | 51.51691 | -32.94222 | 26861 ft | 524 kts | 77° |
| 2026-04-25 20:01 | 51.52694 | -32.88598 | 26868 ft | 524 kts | 77° |
| 2026-04-25 20:01 | 51.53695 | -32.82971 | 26872 ft | 524 kts | 77° |
| 2026-04-25 20:02 | 51.54692 | -32.77340 | 26872 ft | 524 kts | 77° |
| 2026-04-25 20:02 | 51.55690 | -32.71690 | 26881 ft | 524 kts | 77° |
| 2026-04-25 20:02 | 51.56682 | -32.66056 | 26885 ft | 524 kts | 77° |
| 2026-04-25 20:02 | 51.57674 | -32.60404 | 26881 ft | 524 kts | 77° |
| 2026-04-25 20:03 | 51.58646 | -32.54844 | 26883 ft | 523 kts | 77° |
| 2026-04-25 20:03 | 51.59632 | -32.49189 | 26898 ft | 525 kts | 77° |
| 2026-04-25 20:03 | 51.60617 | -32.43518 | 26897 ft | 526 kts | 77° |
| 2026-04-25 20:03 | 51.61602 | -32.37832 | 26891 ft | 527 kts | 77° |
| 2026-04-25 20:04 | 51.62583 | -32.32148 | 26879 ft | 527 kts | 77° |
| 2026-04-25 20:04 | 51.63564 | -32.26452 | 26887 ft | 527 kts | 77° |
| 2026-04-25 20:04 | 51.64539 | -32.20776 | 26898 ft | 526 kts | 77° |
| 2026-04-25 20:04 | 51.65512 | -32.15086 | 26909 ft | 526 kts | 77° |
| 2026-04-25 20:05 | 51.66482 | -32.09396 | 26901 ft | 526 kts | 77° |
| 2026-04-25 20:05 | 51.67450 | -32.03700 | 26897 ft | 526 kts | 77° |
| 2026-04-25 20:05 | 51.68347 | -31.98402 | 26918 ft | 527 kts | 77° |
| 2026-04-25 20:05 | 51.69309 | -31.92702 | 26923 ft | 528 kts | 77° |
| 2026-04-25 20:06 | 51.70271 | -31.86986 | 26917 ft | 529 kts | 77° |
| 2026-04-25 20:06 | 51.71235 | -31.81238 | 26916 ft | 529 kts | 77° |
| 2026-04-25 20:06 | 51.72196 | -31.75493 | 26926 ft | 530 kts | 77° |
| 2026-04-25 20:06 | 51.73152 | -31.69755 | 26926 ft | 530 kts | 77° |
| 2026-04-25 20:07 | 51.74108 | -31.63999 | 26926 ft | 530 kts | 77° |
| 2026-04-25 20:07 | 51.75056 | -31.58268 | 26919 ft | 529 kts | 77° |
| 2026-04-25 20:07 | 51.76004 | -31.52518 | 26924 ft | 529 kts | 77° |
| 2026-04-25 20:07 | 51.76935 | -31.46859 | 26928 ft | 528 kts | 77° |
| 2026-04-25 20:08 | 51.77876 | -31.41116 | 26938 ft | 527 kts | 77° |
| 2026-04-25 20:08 | 51.78812 | -31.35387 | 26941 ft | 527 kts | 77° |
| 2026-04-25 20:08 | 51.79744 | -31.29658 | 26938 ft | 527 kts | 77° |
| 2026-04-25 20:08 | 51.80672 | -31.23934 | 26940 ft | 527 kts | 77° |
| 2026-04-25 20:09 | 51.81597 | -31.18213 | 26948 ft | 527 kts | 77° |
| 2026-04-25 20:09 | 51.82520 | -31.12480 | 26948 ft | 527 kts | 77° |
| 2026-04-25 20:09 | 51.83440 | -31.06749 | 26947 ft | 527 kts | 77° |
| 2026-04-25 20:09 | 51.84360 | -31.01001 | 26954 ft | 527 kts | 78° |
| 2026-04-25 20:10 | 51.84912 | -30.97539 | 26955 ft | 527 kts | 78° |
| 2026-04-25 20:10 | 51.86123 | -30.89924 | 26953 ft | 527 kts | 78° |
| 2026-04-25 20:10 | 51.87031 | -30.84186 | 26955 ft | 527 kts | 78° |
| 2026-04-25 20:10 | 51.87939 | -30.78431 | 26956 ft | 527 kts | 78° |
| 2026-04-25 20:11 | 51.88846 | -30.72663 | 26956 ft | 527 kts | 78° |
| 2026-04-25 20:11 | 51.89748 | -30.66908 | 26950 ft | 527 kts | 77° |
| 2026-04-25 20:11 | 51.90647 | -30.61150 | 26957 ft | 527 kts | 77° |
| 2026-04-25 20:11 | 51.91545 | -30.55374 | 26961 ft | 528 kts | 77° |
| 2026-04-25 20:12 | 51.92428 | -30.49684 | 26966 ft | 528 kts | 78° |
| 2026-04-25 20:12 | 51.93319 | -30.43919 | 26970 ft | 528 kts | 78° |
| 2026-04-25 20:12 | 51.94211 | -30.38123 | 26967 ft | 528 kts | 78° |
| 2026-04-25 20:12 | 51.94510 | -30.36176 | 26967 ft | 528 kts | 78° |
| 2026-04-25 20:13 | 51.95981 | -30.26562 | 26976 ft | 529 kts | 78° |
| 2026-04-25 20:13 | 51.96567 | -30.22717 | 26976 ft | 529 kts | 78° |
| 2026-04-25 20:13 | 51.97447 | -30.16923 | 26971 ft | 529 kts | 77° |
| 2026-04-25 20:13 | 51.98324 | -30.11137 | 26972 ft | 529 kts | 77° |
| 2026-04-25 20:14 | 51.99205 | -30.05304 | 26981 ft | 530 kts | 78° |
| 2026-04-25 20:14 | 52.00108 | -29.99777 | 26984 ft | 531 kts | 74° |
| 2026-04-25 20:14 | 52.01330 | -29.94199 | 26979 ft | 532 kts | 69° |
| 2026-04-25 20:14 | 52.02719 | -29.88714 | 26994 ft | 532 kts | 68° |
| 2026-04-25 20:15 | 52.04154 | -29.83148 | 26989 ft | 533 kts | 68° |
| 2026-04-25 20:15 | 52.05589 | -29.77585 | 26985 ft | 533 kts | 68° |
| 2026-04-25 20:15 | 52.07010 | -29.72029 | 26978 ft | 533 kts | 68° |
| 2026-04-25 20:15 | 52.08419 | -29.66456 | 26985 ft | 532 kts | 68° |
| 2026-04-25 20:16 | 52.09816 | -29.60878 | 26991 ft | 532 kts | 68° |
| 2026-04-25 20:16 | 52.11204 | -29.55293 | 26992 ft | 532 kts | 68° |
| 2026-04-25 20:16 | 52.12581 | -29.49726 | 26990 ft | 531 kts | 68° |
| 2026-04-25 20:16 | 52.13962 | -29.44124 | 26992 ft | 531 kts | 69° |
| 2026-04-25 20:17 | 52.15319 | -29.38609 | 26997 ft | 531 kts | 69° |
| 2026-04-25 20:17 | 52.16690 | -29.33022 | 26998 ft | 531 kts | 69° |
| 2026-04-25 20:17 | 52.18062 | -29.27418 | 27014 ft | 531 kts | 68° |
| 2026-04-25 20:17 | 52.19424 | -29.21843 | 26993 ft | 531 kts | 68° |
| 2026-04-25 20:18 | 52.20792 | -29.16233 | 26997 ft | 530 kts | 68° |
| 2026-04-25 20:18 | 52.22154 | -29.10637 | 27010 ft | 530 kts | 68° |
| 2026-04-25 20:18 | 52.23512 | -29.05041 | 26997 ft | 530 kts | 68° |
| 2026-04-25 20:18 | 52.24797 | -28.99733 | 27013 ft | 530 kts | 68° |
| 2026-04-25 20:19 | 52.26126 | -28.94230 | 26996 ft | 530 kts | 68° |
| 2026-04-25 20:19 | 52.27478 | -28.88614 | 27017 ft | 530 kts | 69° |
| 2026-04-25 20:19 | 52.28824 | -28.83011 | 27015 ft | 530 kts | 68° |
| 2026-04-25 20:19 | 52.30168 | -28.77404 | 26999 ft | 530 kts | 68° |
| 2026-04-25 20:20 | 52.31507 | -28.71799 | 27016 ft | 529 kts | 68° |
| 2026-04-25 20:20 | 52.32844 | -28.66187 | 27005 ft | 529 kts | 68° |
| 2026-04-25 20:20 | 52.34180 | -28.60566 | 27019 ft | 529 kts | 68° |
| 2026-04-25 20:20 | 52.35513 | -28.54944 | 27018 ft | 529 kts | 68° |
| 2026-04-25 20:21 | 52.36828 | -28.49383 | 27004 ft | 529 kts | 68° |
| 2026-04-25 20:21 | 52.38154 | -28.43758 | 27015 ft | 529 kts | 68° |
| 2026-04-25 20:21 | 52.39482 | -28.38114 | 27002 ft | 529 kts | 68° |
| 2026-04-25 20:21 | 52.40799 | -28.32501 | 27019 ft | 529 kts | 68° |
| 2026-04-25 20:22 | 52.42117 | -28.26870 | 27002 ft | 529 kts | 68° |
| 2026-04-25 20:22 | 52.42988 | -28.23140 | 27019 ft | 529 kts | 68° |
| 2026-04-25 20:22 | 52.44746 | -28.15590 | 27013 ft | 529 kts | 68° |
| 2026-04-25 20:22 | 52.46044 | -28.10002 | 27013 ft | 529 kts | 68° |
| 2026-04-25 20:23 | 52.47348 | -28.04369 | 27018 ft | 529 kts | 68° |
| 2026-04-25 20:23 | 52.48570 | -27.99079 | 27002 ft | 529 kts | 68° |
| 2026-04-25 20:23 | 52.49872 | -27.93426 | 27025 ft | 529 kts | 68° |
| 2026-04-25 20:23 | 52.51173 | -27.87767 | 27006 ft | 529 kts | 68° |
| 2026-04-25 20:24 | 52.52472 | -27.82098 | 27010 ft | 529 kts | 68° |
| 2026-04-25 20:24 | 52.53766 | -27.76432 | 27011 ft | 529 kts | 68° |
| 2026-04-25 20:24 | 52.55056 | -27.70773 | 27008 ft | 529 kts | 69° |
| 2026-04-25 20:24 | 52.56346 | -27.65100 | 27025 ft | 529 kts | 69° |
| 2026-04-25 20:25 | 52.57619 | -27.59483 | 27012 ft | 529 kts | 69° |
| 2026-04-25 20:25 | 52.58906 | -27.53793 | 27011 ft | 529 kts | 69° |
| 2026-04-25 20:25 | 52.60186 | -27.48116 | 27027 ft | 529 kts | 69° |
| 2026-04-25 20:25 | 52.61465 | -27.42426 | 27012 ft | 529 kts | 69° |
| 2026-04-25 20:26 | 52.62740 | -27.36741 | 27014 ft | 529 kts | 69° |
| 2026-04-25 20:26 | 52.64015 | -27.31043 | 27024 ft | 529 kts | 69° |
| 2026-04-25 20:26 | 52.65269 | -27.25421 | 27012 ft | 530 kts | 69° |
| 2026-04-25 20:26 | 52.66535 | -27.19727 | 27013 ft | 530 kts | 69° |
| 2026-04-25 20:27 | 52.67800 | -27.14027 | 27034 ft | 529 kts | 69° |
| 2026-04-25 20:27 | 52.69062 | -27.08323 | 27012 ft | 530 kts | 69° |
| 2026-04-25 20:27 | 52.70321 | -27.02613 | 27020 ft | 530 kts | 69° |
| 2026-04-25 20:27 | 52.71508 | -26.97218 | 27018 ft | 529 kts | 69° |
| 2026-04-25 20:28 | 52.72766 | -26.91490 | 27013 ft | 529 kts | 69° |
| 2026-04-25 20:28 | 52.74018 | -26.85770 | 27018 ft | 529 kts | 69° |
| 2026-04-25 20:28 | 52.75268 | -26.80039 | 27020 ft | 529 kts | 69° |
| 2026-04-25 20:28 | 52.76514 | -26.74314 | 27018 ft | 529 kts | 69° |
| 2026-04-25 20:29 | 52.77754 | -26.68599 | 27016 ft | 529 kts | 69° |
| 2026-04-25 20:29 | 52.78984 | -26.62920 | 27020 ft | 529 kts | 69° |
| 2026-04-25 20:29 | 52.80219 | -26.57194 | 27019 ft | 529 kts | 69° |
| 2026-04-25 20:29 | 52.81454 | -26.51455 | 27019 ft | 529 kts | 69° |
| 2026-04-25 20:30 | 52.82688 | -26.45706 | 27022 ft | 529 kts | 69° |
| 2026-04-25 20:30 | 52.83915 | -26.39974 | 27021 ft | 529 kts | 69° |
| 2026-04-25 20:30 | 52.85143 | -26.34217 | 27084 ft | 532 kts | 69° |
| 2026-04-25 20:30 | 52.86377 | -26.28422 | 27102 ft | 535 kts | 69° |
| 2026-04-25 20:31 | 52.87596 | -26.22677 | 27119 ft | 535 kts | 70° |
| 2026-04-25 20:31 | 52.88829 | -26.16848 | 27129 ft | 536 kts | 70° |
| 2026-04-25 20:31 | 52.90052 | -26.11048 | 27080 ft | 531 kts | 69° |
| 2026-04-25 20:31 | 52.91268 | -26.05264 | 27023 ft | 529 kts | 69° |
| 2026-04-25 20:32 | 52.92426 | -25.99743 | 27026 ft | 529 kts | 69° |
| 2026-04-25 20:32 | 52.93616 | -25.94057 | 27030 ft | 530 kts | 69° |
| 2026-04-25 20:32 | 52.94824 | -25.88270 | 27031 ft | 530 kts | 70° |
| 2026-04-25 20:32 | 52.96029 | -25.82475 | 27027 ft | 531 kts | 70° |
| 2026-04-25 20:33 | 52.97232 | -25.76678 | 27026 ft | 531 kts | 70° |
| 2026-04-25 20:33 | 52.98416 | -25.70954 | 27024 ft | 531 kts | 70° |
| 2026-04-25 20:33 | 52.99624 | -25.65091 | 27029 ft | 531 kts | 69° |
| 2026-04-25 20:33 | 53.00405 | -25.61294 | 27027 ft | 532 kts | 69° |
| 2026-04-25 20:34 | 53.01991 | -25.53565 | 27025 ft | 532 kts | 70° |
| 2026-04-25 20:34 | 53.03182 | -25.47737 | 27024 ft | 532 kts | 70° |
| 2026-04-25 20:34 | 53.04372 | -25.41897 | 27024 ft | 532 kts | 70° |
| 2026-04-25 20:34 | 53.05558 | -25.36062 | 27025 ft | 532 kts | 70° |
| 2026-04-25 20:35 | 53.06738 | -25.30234 | 27025 ft | 531 kts | 70° |
| 2026-04-25 20:35 | 53.07902 | -25.24475 | 27024 ft | 531 kts | 70° |
| 2026-04-25 20:35 | 53.09074 | -25.18653 | 27031 ft | 532 kts | 70° |
| 2026-04-25 20:35 | 53.10246 | -25.12817 | 27029 ft | 532 kts | 70° |
| 2026-04-25 20:36 | 53.11419 | -25.06962 | 27029 ft | 533 kts | 70° |
| 2026-04-25 20:36 | 53.12587 | -25.01108 | 27028 ft | 533 kts | 70° |
| 2026-04-25 20:36 | 53.13689 | -24.95574 | 27027 ft | 533 kts | 70° |
| 2026-04-25 20:36 | 53.14852 | -24.89711 | 27029 ft | 533 kts | 70° |
| 2026-04-25 20:37 | 53.16012 | -24.83849 | 27024 ft | 533 kts | 70° |
| 2026-04-25 20:37 | 53.17175 | -24.77953 | 27028 ft | 533 kts | 70° |
| 2026-04-25 20:37 | 53.18333 | -24.72063 | 27039 ft | 534 kts | 70° |
| 2026-04-25 20:37 | 53.19488 | -24.66170 | 27034 ft | 534 kts | 70° |
| 2026-04-25 20:38 | 53.20625 | -24.60353 | 27009 ft | 534 kts | 70° |
| 2026-04-25 20:38 | 53.21775 | -24.54452 | 27019 ft | 534 kts | 70° |
| 2026-04-25 20:38 | 53.22921 | -24.48550 | 27020 ft | 534 kts | 70° |
| 2026-04-25 20:38 | 53.24066 | -24.42641 | 27025 ft | 533 kts | 70° |
| 2026-04-25 20:39 | 53.25205 | -24.36739 | 27026 ft | 533 kts | 70° |
| 2026-04-25 20:39 | 53.26340 | -24.30841 | 27028 ft | 533 kts | 70° |
| 2026-04-25 20:39 | 53.27460 | -24.25008 | 27039 ft | 533 kts | 70° |
| 2026-04-25 20:39 | 53.28220 | -24.21031 | 27035 ft | 534 kts | 70° |
| 2026-04-25 20:40 | 53.29717 | -24.13187 | 27033 ft | 534 kts | 70° |
| 2026-04-25 20:40 | 53.30847 | -24.07246 | 27031 ft | 535 kts | 70° |
| 2026-04-25 20:40 | 53.31976 | -24.01286 | 27030 ft | 535 kts | 70° |
| 2026-04-25 20:40 | 53.33037 | -23.95669 | 27029 ft | 535 kts | 70° |
| 2026-04-25 20:41 | 53.34155 | -23.89736 | 27030 ft | 535 kts | 70° |
| 2026-04-25 20:41 | 53.35258 | -23.83859 | 27033 ft | 535 kts | 71° |
| 2026-04-25 20:41 | 53.36374 | -23.77896 | 27045 ft | 535 kts | 70° |
| 2026-04-25 20:41 | 53.37484 | -23.71944 | 27038 ft | 536 kts | 70° |
| 2026-04-25 20:42 | 53.38596 | -23.65966 | 27033 ft | 536 kts | 71° |
| 2026-04-25 20:42 | 53.39701 | -23.60005 | 27029 ft | 537 kts | 71° |
| 2026-04-25 20:42 | 53.40809 | -23.54005 | 27031 ft | 537 kts | 71° |
| 2026-04-25 20:42 | 53.41910 | -23.48029 | 27029 ft | 537 kts | 71° |
| 2026-04-25 20:43 | 53.42997 | -23.42108 | 27031 ft | 537 kts | 71° |
| 2026-04-25 20:43 | 53.44092 | -23.36124 | 27032 ft | 537 kts | 71° |
| 2026-04-25 20:43 | 53.45184 | -23.30138 | 27034 ft | 537 kts | 71° |
| 2026-04-25 20:43 | 53.46274 | -23.24140 | 27034 ft | 537 kts | 71° |
| 2026-04-25 20:44 | 53.47362 | -23.18137 | 27037 ft | 537 kts | 71° |
| 2026-04-25 20:44 | 53.48449 | -23.12119 | 27031 ft | 537 kts | 71° |
| 2026-04-25 20:44 | 53.49518 | -23.06180 | 27034 ft | 537 kts | 71° |
| 2026-04-25 20:44 | 53.50599 | -23.00155 | 27033 ft | 537 kts | 71° |
| 2026-04-25 20:45 | 53.51615 | -22.94474 | 27030 ft | 537 kts | 71° |
| 2026-04-25 20:45 | 53.52690 | -22.88444 | 27033 ft | 537 kts | 71° |
| 2026-04-25 20:45 | 53.53762 | -22.82415 | 27049 ft | 537 kts | 71° |
| 2026-04-25 20:45 | 53.54830 | -22.76381 | 27045 ft | 538 kts | 71° |
| 2026-04-25 20:46 | 53.55883 | -22.70421 | 27038 ft | 538 kts | 71° |
| 2026-04-25 20:46 | 53.56945 | -22.64383 | 27038 ft | 539 kts | 71° |
| 2026-04-25 20:46 | 53.58008 | -22.58320 | 27037 ft | 539 kts | 71° |
| 2026-04-25 20:46 | 53.59065 | -22.52269 | 27036 ft | 539 kts | 72° |
| 2026-04-25 20:47 | 53.60121 | -22.46200 | 27036 ft | 539 kts | 72° |
| 2026-04-25 20:47 | 53.61173 | -22.40142 | 27038 ft | 539 kts | 72° |
| 2026-04-25 20:47 | 53.62224 | -22.34066 | 27037 ft | 539 kts | 72° |
| 2026-04-25 20:47 | 53.63258 | -22.28066 | 27042 ft | 539 kts | 72° |
| 2026-04-25 20:48 | 53.64313 | -22.21921 | 27038 ft | 539 kts | 72° |
| 2026-04-25 20:48 | 53.65340 | -22.15926 | 27037 ft | 539 kts | 72° |
| 2026-04-25 20:48 | 53.66375 | -22.09859 | 27037 ft | 539 kts | 72° |
| 2026-04-25 20:48 | 53.67410 | -22.03767 | 27039 ft | 539 kts | 72° |
| 2026-04-25 20:49 | 53.68391 | -21.97976 | 27032 ft | 539 kts | 72° |
| 2026-04-25 20:49 | 53.69420 | -21.91884 | 27043 ft | 539 kts | 72° |
| 2026-04-25 20:49 | 53.70445 | -21.85791 | 27041 ft | 539 kts | 72° |
| 2026-04-25 20:49 | 53.71453 | -21.79782 | 27043 ft | 539 kts | 72° |
| 2026-04-25 20:50 | 53.72473 | -21.73679 | 27038 ft | 539 kts | 73° |
| 2026-04-25 20:50 | 53.73488 | -21.67582 | 27040 ft | 539 kts | 73° |
| 2026-04-25 20:50 | 53.74498 | -21.61492 | 27040 ft | 539 kts | 73° |
| 2026-04-25 20:50 | 53.75507 | -21.55394 | 27039 ft | 539 kts | 73° |
| 2026-04-25 20:51 | 53.76514 | -21.49277 | 27040 ft | 539 kts | 73° |
| 2026-04-25 20:51 | 53.77516 | -21.43176 | 27041 ft | 539 kts | 73° |
| 2026-04-25 20:51 | 53.78517 | -21.37057 | 27045 ft | 539 kts | 73° |
| 2026-04-25 20:51 | 53.79511 | -21.30961 | 27041 ft | 539 kts | 73° |
| 2026-04-25 20:52 | 53.80494 | -21.24905 | 27040 ft | 539 kts | 73° |
| 2026-04-25 20:52 | 53.81162 | -21.20778 | 27047 ft | 538 kts | 73° |
| 2026-04-25 20:52 | 53.82470 | -21.12671 | 27043 ft | 538 kts | 73° |
| 2026-04-25 20:52 | 53.83452 | -21.06560 | 27048 ft | 538 kts | 73° |
| 2026-04-25 20:53 | 53.84433 | -21.00427 | 27043 ft | 538 kts | 74° |
| 2026-04-25 20:53 | 53.85350 | -20.94682 | 27046 ft | 538 kts | 74° |
| 2026-04-25 20:53 | 53.86335 | -20.88480 | 27046 ft | 538 kts | 74° |
| 2026-04-25 20:53 | 53.87294 | -20.82430 | 27042 ft | 538 kts | 75° |
| 2026-04-25 20:54 | 53.88261 | -20.76296 | 27043 ft | 537 kts | 75° |
| 2026-04-25 20:54 | 53.89223 | -20.70177 | 27045 ft | 537 kts | 75° |
| 2026-04-25 20:54 | 53.90183 | -20.64049 | 27047 ft | 537 kts | 75° |
| 2026-04-25 20:54 | 53.91142 | -20.57902 | 27043 ft | 537 kts | 75° |
| 2026-04-25 20:55 | 53.92083 | -20.51843 | 27050 ft | 536 kts | 75° |
| 2026-04-25 20:55 | 53.93032 | -20.45719 | 27053 ft | 536 kts | 75° |
| 2026-04-25 20:55 | 53.93979 | -20.39583 | 27052 ft | 536 kts | 75° |
| 2026-04-25 20:55 | 53.94920 | -20.33459 | 27051 ft | 536 kts | 76° |
| 2026-04-25 20:56 | 53.95859 | -20.27324 | 27058 ft | 536 kts | 76° |
| 2026-04-25 20:56 | 53.96794 | -20.21200 | 27055 ft | 535 kts | 76° |
| 2026-04-25 20:56 | 53.97727 | -20.15062 | 27059 ft | 535 kts | 76° |
| 2026-04-25 20:56 | 53.98654 | -20.08947 | 27061 ft | 535 kts | 76° |
| 2026-04-25 20:57 | 53.99525 | -20.02782 | 27066 ft | 534 kts | 79° |
| 2026-04-25 20:57 | 54.00081 | -19.96972 | 27062 ft | 534 kts | 84° |
| 2026-04-25 20:57 | 54.00318 | -19.90684 | 27067 ft | 532 kts | 90° |
| 2026-04-25 20:57 | 54.00412 | -19.84376 | 27079 ft | 532 kts | 90° |
| 2026-04-25 20:58 | 54.00492 | -19.78165 | 27073 ft | 532 kts | 91° |
| 2026-04-25 20:58 | 54.00574 | -19.71870 | 27072 ft | 532 kts | 91° |
| 2026-04-25 20:58 | 54.00664 | -19.65585 | 27073 ft | 532 kts | 90° |
| 2026-04-25 20:58 | 54.00762 | -19.59306 | 27076 ft | 532 kts | 90° |
| 2026-04-25 20:59 | 54.00865 | -19.53017 | 27075 ft | 531 kts | 90° |
| 2026-04-25 20:59 | 54.00970 | -19.46730 | 27073 ft | 531 kts | 90° |
| 2026-04-25 20:59 | 54.01039 | -19.42574 | 27079 ft | 531 kts | 90° |
| 2026-04-25 20:59 | 54.01141 | -19.36299 | 27072 ft | 531 kts | 90° |
| 2026-04-25 21:00 | 54.01239 | -19.30020 | 27082 ft | 531 kts | 90° |
| 2026-04-25 21:00 | 54.01301 | -19.25866 | 27078 ft | 530 kts | 91° |
| 2026-04-25 21:00 | 54.01508 | -19.11214 | 27085 ft | 529 kts | 91° |
| 2026-04-25 21:01 | 54.01589 | -19.05028 | 27088 ft | 529 kts | 91° |
| 2026-04-25 21:01 | 54.01663 | -18.99135 | 27088 ft | 528 kts | 91° |
| 2026-04-25 21:01 | 54.01739 | -18.92867 | 27064 ft | 528 kts | 91° |
| 2026-04-25 21:01 | 54.01812 | -18.86623 | 27081 ft | 527 kts | 91° |
| 2026-04-25 21:02 | 54.01881 | -18.80400 | 27100 ft | 526 kts | 91° |
| 2026-04-25 21:02 | 54.01947 | -18.74166 | 27082 ft | 526 kts | 91° |
| 2026-04-25 21:02 | 54.02009 | -18.68025 | 27087 ft | 526 kts | 92° |
| 2026-04-25 21:02 | 54.02068 | -18.61830 | 27106 ft | 525 kts | 92° |
| 2026-04-25 21:03 | 54.02124 | -18.55588 | 27097 ft | 525 kts | 92° |
| 2026-04-25 21:03 | 54.02176 | -18.49379 | 27100 ft | 525 kts | 92° |
| 2026-04-25 21:03 | 54.02226 | -18.43159 | 27092 ft | 525 kts | 92° |
| 2026-04-25 21:03 | 54.02273 | -18.36949 | 27105 ft | 525 kts | 92° |
| 2026-04-25 21:04 | 54.02315 | -18.30803 | 27106 ft | 525 kts | 92° |
| 2026-04-25 21:04 | 54.02355 | -18.24607 | 27103 ft | 525 kts | 92° |
| 2026-04-25 21:04 | 54.02393 | -18.18356 | 27092 ft | 525 kts | 92° |
| 2026-04-25 21:04 | 54.02426 | -18.12169 | 27095 ft | 524 kts | 92° |
| 2026-04-25 21:05 | 54.02457 | -18.05970 | 27105 ft | 523 kts | 92° |
| 2026-04-25 21:05 | 54.02484 | -17.99863 | 27098 ft | 523 kts | 92° |
| 2026-04-25 21:05 | 54.02507 | -17.93896 | 27105 ft | 522 kts | 92° |
| 2026-04-25 21:05 | 54.02528 | -17.87793 | 27116 ft | 522 kts | 92° |
| 2026-04-25 21:06 | 54.02546 | -17.81618 | 27112 ft | 522 kts | 92° |
| 2026-04-25 21:06 | 54.02561 | -17.75445 | 27112 ft | 522 kts | 92° |
| 2026-04-25 21:06 | 54.02572 | -17.69279 | 27110 ft | 522 kts | 92° |
| 2026-04-25 21:06 | 54.02578 | -17.65186 | 27116 ft | 522 kts | 92° |
| 2026-04-25 21:07 | 54.02586 | -17.56925 | 27110 ft | 521 kts | 92° |
| 2026-04-25 21:07 | 54.02588 | -17.50761 | 27113 ft | 520 kts | 92° |
| 2026-04-25 21:07 | 54.02587 | -17.44618 | 27114 ft | 519 kts | 93° |
| 2026-04-25 21:07 | 54.02583 | -17.38470 | 27114 ft | 519 kts | 93° |
| 2026-04-25 21:08 | 54.02575 | -17.32321 | 27117 ft | 519 kts | 93° |
| 2026-04-25 21:08 | 54.02565 | -17.26265 | 27122 ft | 519 kts | 93° |
| 2026-04-25 21:08 | 54.02551 | -17.20121 | 27102 ft | 518 kts | 93° |
| 2026-04-25 21:08 | 54.02534 | -17.13989 | 27115 ft | 518 kts | 93° |
| 2026-04-25 21:09 | 54.02492 | -17.01736 | 27122 ft | 517 kts | 93° |
| 2026-04-25 21:09 | 54.02468 | -16.95964 | 27130 ft | 517 kts | 93° |
| 2026-04-25 21:09 | 54.02439 | -16.89851 | 27134 ft | 517 kts | 93° |
| 2026-04-25 21:10 | 54.02407 | -16.83725 | 27130 ft | 517 kts | 93° |
| 2026-04-25 21:10 | 54.02371 | -16.77593 | 27136 ft | 517 kts | 93° |
| 2026-04-25 21:10 | 54.02334 | -16.71548 | 27134 ft | 517 kts | 93° |
| 2026-04-25 21:10 | 54.02292 | -16.65424 | 27132 ft | 517 kts | 94° |
| 2026-04-25 21:11 | 54.02248 | -16.59296 | 27132 ft | 518 kts | 94° |
| 2026-04-25 21:11 | 54.02200 | -16.53169 | 27131 ft | 518 kts | 94° |
| 2026-04-25 21:11 | 54.02149 | -16.47045 | 27142 ft | 518 kts | 94° |
| 2026-04-25 21:11 | 54.02096 | -16.40925 | 27144 ft | 518 kts | 94° |
| 2026-04-25 21:12 | 54.02039 | -16.34782 | 27144 ft | 518 kts | 94° |
| 2026-04-25 21:12 | 54.01979 | -16.28659 | 27140 ft | 517 kts | 94° |
| 2026-04-25 21:12 | 54.01916 | -16.22545 | 27139 ft | 517 kts | 94° |
| 2026-04-25 21:12 | 54.01872 | -16.18478 | 27141 ft | 517 kts | 94° |
| 2026-04-25 21:13 | 54.01781 | -16.10356 | 27142 ft | 517 kts | 94° |
| 2026-04-25 21:13 | 54.01709 | -16.04242 | 27147 ft | 517 kts | 94° |
| 2026-04-25 21:13 | 54.01638 | -15.98498 | 27128 ft | 517 kts | 94° |
| 2026-04-25 21:13 | 54.01560 | -15.92372 | 27135 ft | 517 kts | 94° |
| 2026-04-25 21:14 | 54.01478 | -15.86248 | 27138 ft | 517 kts | 94° |
| 2026-04-25 21:14 | 54.01395 | -15.80214 | 27143 ft | 517 kts | 94° |
| 2026-04-25 21:14 | 54.01307 | -15.74112 | 27147 ft | 517 kts | 94° |
| 2026-04-25 21:14 | 54.01216 | -15.67987 | 27155 ft | 517 kts | 94° |
| 2026-04-25 21:15 | 54.01123 | -15.61888 | 27149 ft | 517 kts | 95° |
| 2026-04-25 21:15 | 54.01025 | -15.55754 | 27158 ft | 517 kts | 95° |
| 2026-04-25 21:15 | 54.00925 | -15.49632 | 27161 ft | 517 kts | 95° |
| 2026-04-25 21:15 | 54.00822 | -15.43525 | 27118 ft | 516 kts | 95° |
| 2026-04-25 21:16 | 54.00718 | -15.37495 | 27150 ft | 516 kts | 95° |
| 2026-04-25 21:16 | 54.00609 | -15.31400 | 27156 ft | 516 kts | 95° |
| 2026-04-25 21:16 | 54.00496 | -15.25276 | 27158 ft | 516 kts | 95° |
| 2026-04-25 21:16 | 54.00381 | -15.19178 | 27159 ft | 516 kts | 95° |
| 2026-04-25 21:17 | 54.00263 | -15.13071 | 27159 ft | 516 kts | 95° |
| 2026-04-25 21:17 | 54.00143 | -15.06970 | 27164 ft | 516 kts | 95° |
| 2026-04-25 21:17 | 54.00019 | -15.00883 | 27163 ft | 516 kts | 95° |
| 2026-04-25 21:17 | 53.99934 | -14.95170 | 27162 ft | 516 kts | 94° |
| 2026-04-25 21:18 | 53.99934 | -14.89118 | 27162 ft | 517 kts | 92° |
| 2026-04-25 21:18 | 53.99979 | -14.83012 | 27154 ft | 517 kts | 92° |
| 2026-04-25 21:18 | 54.00030 | -14.76902 | 27161 ft | 516 kts | 92° |
| 2026-04-25 21:18 | 54.00071 | -14.70786 | 27162 ft | 516 kts | 92° |
| 2026-04-25 21:19 | 54.00095 | -14.64681 | 27172 ft | 516 kts | 92° |
| 2026-04-25 21:19 | 54.00106 | -14.58578 | 27172 ft | 516 kts | 92° |
| 2026-04-25 21:19 | 54.00108 | -14.52471 | 27170 ft | 516 kts | 93° |
| 2026-04-25 21:19 | 54.00105 | -14.46382 | 27175 ft | 516 kts | 93° |
| 2026-04-25 21:20 | 54.00099 | -14.40274 | 27168 ft | 516 kts | 93° |
| 2026-04-25 21:20 | 54.00095 | -14.36241 | 27172 ft | 516 kts | 93° |
| 2026-04-25 21:20 | 54.00083 | -14.28166 | 27167 ft | 515 kts | 93° |
| 2026-04-25 21:20 | 54.00071 | -14.22085 | 27171 ft | 514 kts | 93° |
| 2026-04-25 21:21 | 54.00057 | -14.15990 | 27181 ft | 513 kts | 93° |
| 2026-04-25 21:21 | 54.00035 | -14.09906 | 27180 ft | 513 kts | 94° |
| 2026-04-25 21:21 | 53.99768 | -14.03881 | 27171 ft | 509 kts | 101° |
| 2026-04-25 21:21 | 53.99130 | -13.98312 | 27186 ft | 506 kts | 107° |
| 2026-04-25 21:22 | 53.98147 | -13.92568 | 27185 ft | 503 kts | 113° |
| 2026-04-25 21:22 | 53.96845 | -13.87155 | 27189 ft | 500 kts | 117° |
| 2026-04-25 21:22 | 53.95434 | -13.81742 | 27178 ft | 500 kts | 117° |
| 2026-04-25 21:22 | 53.94011 | -13.76331 | 27166 ft | 500 kts | 117° |
| 2026-04-25 21:23 | 53.92598 | -13.70938 | 27178 ft | 500 kts | 117° |
| 2026-04-25 21:23 | 53.91189 | -13.65539 | 27184 ft | 500 kts | 117° |
| 2026-04-25 21:23 | 53.89802 | -13.60192 | 27189 ft | 500 kts | 117° |
| 2026-04-25 21:23 | 53.88400 | -13.54777 | 27192 ft | 501 kts | 117° |
| 2026-04-25 21:24 | 53.86998 | -13.49358 | 27193 ft | 501 kts | 117° |
| 2026-04-25 21:24 | 53.85594 | -13.43938 | 27193 ft | 501 kts | 117° |
| 2026-04-25 21:24 | 53.84193 | -13.38536 | 27193 ft | 501 kts | 117° |
| 2026-04-25 21:24 | 53.82787 | -13.33135 | 27193 ft | 501 kts | 117° |
| 2026-04-25 21:25 | 53.81397 | -13.27809 | 27193 ft | 501 kts | 117° |
| 2026-04-25 21:25 | 53.79985 | -13.22411 | 27196 ft | 501 kts | 117° |
| 2026-04-25 21:25 | 53.78570 | -13.17017 | 27196 ft | 501 kts | 117° |
| 2026-04-25 21:25 | 53.77154 | -13.11633 | 27169 ft | 501 kts | 117° |
| 2026-04-25 21:26 | 53.75738 | -13.06263 | 27194 ft | 501 kts | 117° |
| 2026-04-25 21:26 | 53.74318 | -13.00888 | 27198 ft | 501 kts | 117° |
| 2026-04-25 21:26 | 53.72967 | -12.95789 | 27203 ft | 502 kts | 117° |
| 2026-04-25 21:26 | 53.71556 | -12.90474 | 27202 ft | 502 kts | 117° |
| 2026-04-25 21:27 | 53.70123 | -12.85092 | 27203 ft | 502 kts | 117° |
| 2026-04-25 21:27 | 53.68684 | -12.79698 | 27202 ft | 503 kts | 117° |
| 2026-04-25 21:27 | 53.67244 | -12.74311 | 27204 ft | 503 kts | 117° |
| 2026-04-25 21:27 | 53.65807 | -12.68946 | 27207 ft | 503 kts | 118° |
| 2026-04-25 21:28 | 53.64362 | -12.63566 | 27207 ft | 503 kts | 118° |
| 2026-04-25 21:28 | 53.62916 | -12.58196 | 27207 ft | 502 kts | 118° |
| 2026-04-25 21:28 | 53.61485 | -12.52895 | 27188 ft | 502 kts | 118° |
| 2026-04-25 21:28 | 53.60037 | -12.47539 | 27197 ft | 502 kts | 118° |
| 2026-04-25 21:29 | 53.58586 | -12.42189 | 27195 ft | 502 kts | 118° |
| 2026-04-25 21:29 | 53.57129 | -12.36829 | 27207 ft | 503 kts | 118° |
| 2026-04-25 21:29 | 53.55671 | -12.31476 | 27212 ft | 503 kts | 118° |
| 2026-04-25 21:29 | 53.54210 | -12.26127 | 27210 ft | 504 kts | 118° |
| 2026-04-25 21:30 | 53.52743 | -12.20766 | 27210 ft | 504 kts | 118° |
| 2026-04-25 21:30 | 53.51270 | -12.15395 | 27212 ft | 505 kts | 118° |
| 2026-04-25 21:30 | 53.49799 | -12.10048 | 27213 ft | 505 kts | 118° |
| 2026-04-25 21:30 | 53.48823 | -12.06504 | 27212 ft | 505 kts | 118° |
| 2026-04-25 21:31 | 53.46926 | -11.99631 | 27209 ft | 505 kts | 118° |
| 2026-04-25 21:31 | 53.45447 | -11.94289 | 27210 ft | 504 kts | 118° |
| 2026-04-25 21:31 | 53.43986 | -11.89023 | 27206 ft | 504 kts | 118° |
| 2026-04-25 21:31 | 53.42499 | -11.83677 | 27224 ft | 504 kts | 118° |
| 2026-04-25 21:32 | 53.41015 | -11.78353 | 27189 ft | 504 kts | 118° |
| 2026-04-25 21:32 | 53.39527 | -11.73025 | 27206 ft | 505 kts | 118° |
| 2026-04-25 21:32 | 53.38029 | -11.67677 | 27215 ft | 505 kts | 118° |
| 2026-04-25 21:32 | 53.36527 | -11.62328 | 27217 ft | 506 kts | 118° |
| 2026-04-25 21:33 | 53.35050 | -11.57077 | 27208 ft | 506 kts | 118° |
| 2026-04-25 21:33 | 53.33545 | -11.51739 | 27215 ft | 506 kts | 119° |
| 2026-04-25 21:33 | 53.32039 | -11.46409 | 27219 ft | 507 kts | 119° |
| 2026-04-25 21:33 | 53.30526 | -11.41067 | 27215 ft | 507 kts | 119° |
| 2026-04-25 21:34 | 53.29012 | -11.35733 | 27215 ft | 507 kts | 119° |
| 2026-04-25 21:34 | 53.27495 | -11.30404 | 27196 ft | 507 kts | 119° |
| 2026-04-25 21:34 | 53.25996 | -11.25145 | 27211 ft | 507 kts | 119° |
| 2026-04-25 21:34 | 53.24477 | -11.19830 | 27213 ft | 507 kts | 119° |
| 2026-04-25 21:35 | 53.22958 | -11.14530 | 27213 ft | 507 kts | 119° |
| 2026-04-25 21:35 | 53.21433 | -11.09219 | 27196 ft | 507 kts | 119° |
| 2026-04-25 21:35 | 53.19902 | -11.03898 | 27206 ft | 507 kts | 119° |
| 2026-04-25 21:35 | 53.18469 | -10.98931 | 27213 ft | 507 kts | 119° |
| 2026-04-25 21:36 | 53.16938 | -10.93634 | 27217 ft | 507 kts | 119° |
| 2026-04-25 21:36 | 53.15401 | -10.88326 | 27220 ft | 508 kts | 119° |
| 2026-04-25 21:36 | 53.13862 | -10.83025 | 27224 ft | 508 kts | 119° |
| 2026-04-25 21:36 | 53.12319 | -10.77725 | 27223 ft | 508 kts | 119° |
| 2026-04-25 21:37 | 53.10780 | -10.72447 | 27222 ft | 508 kts | 119° |
| 2026-04-25 21:37 | 53.10278 | -10.70726 | 27221 ft | 508 kts | 119° |
| 2026-04-25 21:37 | 53.07702 | -10.61926 | 27218 ft | 508 kts | 119° |
| 2026-04-25 21:37 | 53.06151 | -10.56643 | 27223 ft | 508 kts | 119° |
| 2026-04-25 21:38 | 53.04596 | -10.51361 | 27314 ft | 510 kts | 119° |
| 2026-04-25 21:38 | 53.03026 | -10.46041 | 27708 ft | 512 kts | 120° |
| 2026-04-25 21:38 | 53.01457 | -10.40731 | 28310 ft | 510 kts | 120° |
| 2026-04-25 21:38 | 52.99903 | -10.35479 | 28933 ft | 507 kts | 120° |
| 2026-04-25 21:39 | 52.98343 | -10.30220 | 29265 ft | 509 kts | 120° |
| 2026-04-25 21:39 | 52.96777 | -10.24958 | 29219 ft | 507 kts | 120° |
| 2026-04-25 21:39 | 52.93662 | -10.14523 | 29220 ft | 503 kts | 120° |
| 2026-04-25 21:40 | 52.90544 | -10.04126 | 29222 ft | 504 kts | 120° |
| 2026-04-25 21:40 | 52.87505 | -9.94035 | 29240 ft | 504 kts | 120° |
| 2026-04-25 21:41 | 52.84356 | -9.83624 | 29204 ft | 505 kts | 120° |
| 2026-04-25 21:41 | 52.81264 | -9.73444 | 29229 ft | 506 kts | 120° |
| 2026-04-25 21:42 | 52.78091 | -9.63038 | 29226 ft | 506 kts | 120° |
| 2026-04-25 21:42 | 52.75060 | -9.53143 | 29221 ft | 507 kts | 120° |
| 2026-04-25 21:43 | 52.71946 | -9.43017 | 29225 ft | 507 kts | 120° |
| 2026-04-25 21:43 | 52.69020 | -9.33542 | 29219 ft | 507 kts | 120° |
| 2026-04-25 21:44 | 52.66305 | -9.24784 | 29214 ft | 507 kts | 120° |
| 2026-04-25 21:45 | 52.61725 | -9.10082 | 29204 ft | 509 kts | 121° |
| 2026-04-25 21:45 | 52.58522 | -8.99853 | 29201 ft | 510 kts | 121° |
| 2026-04-25 21:46 | 52.55331 | -8.89703 | 29221 ft | 511 kts | 121° |
| 2026-04-25 21:46 | 52.52068 | -8.79366 | 29211 ft | 511 kts | 121° |
| 2026-04-25 21:47 | 52.48783 | -8.69005 | 29211 ft | 511 kts | 121° |
| 2026-04-25 21:47 | 52.45661 | -8.59200 | 29208 ft | 511 kts | 121° |
| 2026-04-25 21:48 | 52.42377 | -8.48928 | 29213 ft | 512 kts | 121° |
| 2026-04-25 21:48 | 52.39204 | -8.39045 | 29205 ft | 514 kts | 121° |
| 2026-04-25 21:49 | 52.35892 | -8.28770 | 29210 ft | 515 kts | 121° |
| 2026-04-25 21:49 | 52.32562 | -8.18488 | 29209 ft | 516 kts | 121° |
| 2026-04-25 21:50 | 52.29217 | -8.08192 | 29207 ft | 515 kts | 121° |
| 2026-04-25 21:50 | 52.26065 | -7.98529 | 29209 ft | 515 kts | 121° |
| 2026-04-25 21:51 | 52.22724 | -7.88336 | 29192 ft | 514 kts | 121° |
| 2026-04-25 21:51 | 52.19353 | -7.78091 | 29210 ft | 514 kts | 121° |
| 2026-04-25 21:52 | 52.16104 | -7.68258 | 29213 ft | 515 kts | 121° |
| 2026-04-25 21:52 | 52.12689 | -7.57966 | 29219 ft | 515 kts | 121° |
| 2026-04-25 21:53 | 52.09270 | -7.47700 | 29209 ft | 515 kts | 121° |
| 2026-04-25 21:53 | 52.05875 | -7.37547 | 29212 ft | 515 kts | 122° |
| 2026-04-25 21:54 | 52.02439 | -7.27317 | 29217 ft | 515 kts | 121° |
| 2026-04-25 21:54 | 51.99005 | -7.17135 | 29219 ft | 516 kts | 121° |
| 2026-04-25 21:55 | 51.95544 | -7.06913 | 29220 ft | 516 kts | 122° |
| 2026-04-25 21:55 | 51.92195 | -6.97063 | 29221 ft | 516 kts | 122° |
| 2026-04-25 21:56 | 51.88709 | -6.86848 | 29223 ft | 516 kts | 122° |
| 2026-04-25 21:56 | 51.85224 | -6.76676 | 29223 ft | 516 kts | 122° |
| 2026-04-25 21:57 | 51.81754 | -6.66587 | 29219 ft | 515 kts | 122° |
| 2026-04-25 21:57 | 51.78757 | -6.56021 | 29225 ft | 519 kts | 111° |
| 2026-04-25 21:58 | 51.77008 | -6.44691 | 29221 ft | 522 kts | 100° |
| 2026-04-25 21:58 | 51.75992 | -6.33067 | 29226 ft | 523 kts | 99° |
| 2026-04-25 21:59 | 51.74988 | -6.21487 | 29222 ft | 523 kts | 99° |
| 2026-04-25 21:59 | 51.73927 | -6.09870 | 29227 ft | 523 kts | 100° |
| 2026-04-25 22:00 | 51.72313 | -5.92833 | 29228 ft | 523 kts | 100° |
| 2026-04-25 22:00 | 51.71198 | -5.81230 | 29223 ft | 523 kts | 101° |
| 2026-04-25 22:01 | 51.70077 | -5.69668 | 29227 ft | 523 kts | 101° |
| 2026-04-25 22:01 | 51.69135 | -5.60036 | 29226 ft | 524 kts | 101° |
| 2026-04-25 22:02 | 51.67833 | -5.46863 | 29211 ft | 523 kts | 101° |
| 2026-04-25 22:02 | 51.66685 | -5.35364 | 29229 ft | 523 kts | 101° |
| 2026-04-25 22:03 | 51.65540 | -5.24023 | 29222 ft | 522 kts | 101° |
| 2026-04-25 22:03 | 51.64364 | -5.12478 | 29226 ft | 522 kts | 101° |
| 2026-04-25 22:04 | 51.63178 | -5.00969 | 29232 ft | 522 kts | 101° |
| 2026-04-25 22:04 | 51.62022 | -4.89852 | 29233 ft | 522 kts | 101° |
| 2026-04-25 22:05 | 51.60811 | -4.78320 | 29226 ft | 522 kts | 101° |
| 2026-04-25 22:05 | 51.59596 | -4.66871 | 29226 ft | 523 kts | 101° |
| 2026-04-25 22:06 | 51.58364 | -4.55362 | 29227 ft | 523 kts | 102° |
| 2026-04-25 22:06 | 51.57129 | -4.43938 | 29229 ft | 523 kts | 102° |
| 2026-04-25 22:07 | 51.56080 | -4.34319 | 29223 ft | 523 kts | 102° |
| 2026-04-25 22:07 | 51.54595 | -4.20840 | 29230 ft | 523 kts | 101° |
| 2026-04-25 22:08 | 51.53322 | -4.09384 | 29228 ft | 523 kts | 101° |
| 2026-04-25 22:08 | 51.52082 | -3.98331 | 29225 ft | 523 kts | 101° |
| 2026-04-25 22:09 | 51.50901 | -3.87881 | 29205 ft | 523 kts | 101° |
| 2026-04-25 22:09 | 51.49570 | -3.76429 | 29222 ft | 521 kts | 102° |
| 2026-04-25 22:10 | 51.48240 | -3.65178 | 29213 ft | 519 kts | 102° |
| 2026-04-25 22:10 | 51.47327 | -3.53929 | 29216 ft | 519 kts | 96° |
| 2026-04-25 22:11 | 51.46702 | -3.42451 | 29213 ft | 519 kts | 95° |
| 2026-04-25 22:11 | 51.46058 | -3.30950 | 29237 ft | 519 kts | 96° |
| 2026-04-25 22:12 | 51.45425 | -3.20313 | 29235 ft | 518 kts | 96° |
| 2026-04-25 22:12 | 51.44829 | -3.10612 | 29235 ft | 517 kts | 96° |
| 2026-04-25 22:13 | 51.44124 | -2.99313 | 29237 ft | 517 kts | 96° |
| 2026-04-25 22:13 | 51.43440 | -2.88488 | 29231 ft | 517 kts | 96° |
| 2026-04-25 22:14 | 51.42706 | -2.77014 | 29238 ft | 517 kts | 96° |
| 2026-04-25 22:14 | 51.41993 | -2.66055 | 29241 ft | 517 kts | 96° |
| 2026-04-25 22:15 | 51.41256 | -2.54884 | 29235 ft | 518 kts | 96° |
| 2026-04-25 22:16 | 51.40122 | -2.38016 | 29245 ft | 518 kts | 96° |
| 2026-04-25 22:16 | 51.39337 | -2.26546 | 29238 ft | 519 kts | 96° |
| 2026-04-25 22:17 | 51.38539 | -2.15040 | 29236 ft | 520 kts | 96° |
| 2026-04-25 22:17 | 51.37750 | -2.03821 | 29229 ft | 520 kts | 96° |
| 2026-04-25 22:18 | 51.36949 | -1.92607 | 29224 ft | 521 kts | 96° |
| 2026-04-25 22:18 | 51.36142 | -1.81496 | 29235 ft | 522 kts | 96° |
| 2026-04-25 22:19 | 51.35313 | -1.70179 | 29246 ft | 523 kts | 96° |
| 2026-04-25 22:19 | 51.34088 | -1.58881 | 29238 ft | 524 kts | 105° |
| 2026-04-25 22:20 | 51.31513 | -1.47935 | 29230 ft | 523 kts | 117° |
| 2026-04-25 22:20 | 51.28053 | -1.37699 | 29240 ft | 523 kts | 118° |
| 2026-04-25 22:21 | 51.24643 | -1.27803 | 29237 ft | 524 kts | 118° |
| 2026-04-25 22:21 | 51.21174 | -1.17619 | 29238 ft | 525 kts | 118° |
| 2026-04-25 22:22 | 51.17694 | -1.07351 | 29240 ft | 525 kts | 118° |
| 2026-04-25 22:22 | 51.14452 | -0.97822 | 29240 ft | 525 kts | 118° |
| 2026-04-25 22:23 | 51.10979 | -0.87657 | 29248 ft | 526 kts | 118° |
| 2026-04-25 22:23 | 51.07469 | -0.77426 | 29246 ft | 526 kts | 118° |
| 2026-04-25 22:24 | 51.03504 | -0.67714 | 29246 ft | 526 kts | 127° |
| 2026-04-25 22:24 | 50.99149 | -0.58667 | 29247 ft | 527 kts | 127° |
| 2026-04-25 22:25 | 50.94679 | -0.49385 | 29252 ft | 527 kts | 127° |
| 2026-04-25 22:25 | 50.90283 | -0.40163 | 29258 ft | 527 kts | 127° |
| 2026-04-25 22:26 | 50.85899 | -0.30951 | 29242 ft | 526 kts | 127° |
| 2026-04-25 22:26 | 50.81478 | -0.21696 | 29251 ft | 526 kts | 127° |
| 2026-04-25 22:27 | 50.77053 | -0.12475 | 29250 ft | 526 kts | 127° |
| 2026-04-25 22:27 | 50.73370 | -0.04828 | 29248 ft | 526 kts | 127° |
| 2026-04-25 22:28 | 50.69058 | 0.04102 | 29223 ft | 525 kts | 128° |
| 2026-04-25 22:28 | 50.64637 | 0.13221 | 29234 ft | 524 kts | 128° |
| 2026-04-25 22:29 | 50.60193 | 0.22356 | 29237 ft | 523 kts | 128° |
| 2026-04-25 22:29 | 50.55788 | 0.31385 | 28989 ft | 516 kts | 128° |
| 2026-04-25 22:30 | 50.51419 | 0.40310 | 28017 ft | 515 kts | 128° |
| 2026-04-25 22:30 | 50.49214 | 0.44784 | 27537 ft | 514 kts | 129° |
| 2026-04-25 22:30 | 50.46867 | 0.48992 | 27085 ft | 510 kts | 135° |
| 2026-04-25 22:30 | 50.45201 | 0.51576 | 26787 ft | 507 kts | 139° |
| 2026-04-25 22:31 | 50.41605 | 0.56163 | 26297 ft | 499 kts | 143° |
| 2026-04-25 22:31 | 50.38862 | 0.59497 | 26257 ft | 498 kts | 143° |
| 2026-04-25 22:31 | 50.36138 | 0.62890 | 26255 ft | 498 kts | 142° |
| 2026-04-25 22:31 | 50.33431 | 0.66303 | 26252 ft | 499 kts | 142° |
| 2026-04-25 22:32 | 50.30735 | 0.69705 | 26242 ft | 499 kts | 142° |
| 2026-04-25 22:32 | 50.28050 | 0.73085 | 26243 ft | 499 kts | 142° |
| 2026-04-25 22:32 | 50.25339 | 0.76489 | 26241 ft | 498 kts | 142° |
| 2026-04-25 22:32 | 50.22624 | 0.79891 | 26242 ft | 498 kts | 142° |
| 2026-04-25 22:33 | 50.19914 | 0.83282 | 26241 ft | 498 kts | 142° |
| 2026-04-25 22:33 | 50.17207 | 0.86659 | 26240 ft | 498 kts | 142° |
| 2026-04-25 22:33 | 50.14538 | 0.89975 | 26244 ft | 497 kts | 142° |
| 2026-04-25 22:33 | 50.11829 | 0.93334 | 26252 ft | 497 kts | 142° |
| 2026-04-25 22:34 | 50.09122 | 0.96688 | 26240 ft | 496 kts | 142° |
| 2026-04-25 22:34 | 50.06417 | 1.00027 | 26247 ft | 501 kts | 143° |
| 2026-04-25 22:34 | 50.03691 | 1.02877 | 26238 ft | 506 kts | 152° |
| 2026-04-25 22:34 | 50.00706 | 1.05220 | 26250 ft | 509 kts | 156° |
| 2026-04-25 22:35 | 49.97381 | 1.07576 | 26249 ft | 507 kts | 157° |
| 2026-04-25 22:35 | 49.94159 | 1.09807 | 26237 ft | 506 kts | 157° |
| 2026-04-25 22:35 | 49.90998 | 1.12031 | 26240 ft | 505 kts | 156° |
| 2026-04-25 22:35 | 49.87799 | 1.14338 | 26243 ft | 504 kts | 156° |
| 2026-04-25 22:36 | 49.84626 | 1.16674 | 26238 ft | 504 kts | 155° |
| 2026-04-25 22:36 | 49.81497 | 1.19006 | 26242 ft | 504 kts | 155° |
| 2026-04-25 22:36 | 49.78326 | 1.21381 | 26244 ft | 505 kts | 155° |
| 2026-04-25 22:36 | 49.75170 | 1.23744 | 26241 ft | 505 kts | 155° |
| 2026-04-25 22:37 | 49.72002 | 1.26110 | 26236 ft | 505 kts | 155° |
| 2026-04-25 22:37 | 49.68836 | 1.28467 | 26127 ft | 506 kts | 155° |
| 2026-04-25 22:37 | 49.65671 | 1.30818 | 25623 ft | 506 kts | 155° |
| 2026-04-25 22:37 | 49.62509 | 1.33161 | 25076 ft | 500 kts | 155° |
| 2026-04-25 22:38 | 49.59387 | 1.35472 | 24536 ft | 493 kts | 155° |
| 2026-04-25 22:38 | 49.56306 | 1.37747 | 23991 ft | 485 kts | 155° |
| 2026-04-25 22:38 | 49.53285 | 1.39873 | 23397 ft | 478 kts | 160° |
| 2026-04-25 22:38 | 49.50125 | 1.41349 | 22767 ft | 472 kts | 169° |
| 2026-04-25 22:39 | 49.46926 | 1.42129 | 22361 ft | 457 kts | 176° |
| 2026-04-25 22:39 | 49.44080 | 1.42216 | 22216 ft | 440 kts | 185° |
| 2026-04-25 22:39 | 49.41180 | 1.41597 | 21862 ft | 408 kts | 194° |
| 2026-04-25 22:39 | 49.38515 | 1.40459 | 21083 ft | 386 kts | 199° |
| 2026-04-25 22:40 | 49.36023 | 1.39156 | 20272 ft | 371 kts | 201° |
| 2026-04-25 22:40 | 49.33637 | 1.37852 | 19492 ft | 358 kts | 197° |
| 2026-04-25 22:40 | 49.31204 | 1.37214 | 18722 ft | 350 kts | 181° |
| 2026-04-25 22:40 | 49.28799 | 1.37686 | 17955 ft | 361 kts | 164° |
| 2026-04-25 22:41 | 49.26447 | 1.39192 | 17144 ft | 370 kts | 150° |
| 2026-04-25 22:41 | 49.24359 | 1.41551 | 16350 ft | 378 kts | 137° |
| 2026-04-25 22:41 | 49.22656 | 1.44524 | 15592 ft | 383 kts | 125° |
| 2026-04-25 22:41 | 49.21363 | 1.47982 | 14793 ft | 370 kts | 112° |
| 2026-04-25 22:42 | 49.20669 | 1.51656 | 14052 ft | 364 kts | 97° |
| 2026-04-25 22:42 | 49.20601 | 1.55552 | 13249 ft | 369 kts | 85° |
| 2026-04-25 22:42 | 49.20838 | 1.59496 | 12433 ft | 375 kts | 83° |
| 2026-04-25 22:42 | 49.21159 | 1.63477 | 11649 ft | 379 kts | 82° |
| 2026-04-25 22:43 | 49.21512 | 1.67495 | 10889 ft | 381 kts | 82° |
| 2026-04-25 22:43 | 49.21928 | 1.71320 | 10511 ft | 346 kts | 74° |
| 2026-04-25 22:43 | 49.22785 | 1.74527 | 10285 ft | 314 kts | 62° |
| 2026-04-25 22:43 | 49.23797 | 1.77308 | 10159 ft | 285 kts | 59° |
| 2026-04-25 22:44 | 49.24813 | 1.79816 | 9617 ft | 273 kts | 54° |
| 2026-04-25 22:44 | 49.25946 | 1.82124 | 8909 ft | 269 kts | 52° |
| 2026-04-25 22:44 | 49.27073 | 1.84302 | 8241 ft | 265 kts | 52° |
| 2026-04-25 22:44 | 49.28251 | 1.86541 | 7621 ft | 259 kts | 52° |
| 2026-04-25 22:45 | 49.29344 | 1.88604 | 7403 ft | 248 kts | 52° |
| 2026-04-25 22:45 | 49.30432 | 1.90631 | 7238 ft | 244 kts | 52° |
| 2026-04-25 22:45 | 49.31510 | 1.92627 | 7233 ft | 245 kts | 51° |
| 2026-04-25 22:45 | 49.32505 | 1.94754 | 7189 ft | 244 kts | 68° |
| 2026-04-25 22:46 | 49.32761 | 1.97263 | 7218 ft | 240 kts | 99° |
| 2026-04-25 22:46 | 49.32181 | 1.99628 | 7223 ft | 238 kts | 120° |
| 2026-04-25 22:46 | 49.31366 | 2.01692 | 7214 ft | 240 kts | 121° |
| 2026-04-25 22:46 | 49.30483 | 2.03865 | 7218 ft | 241 kts | 121° |
| 2026-04-25 22:47 | 49.29515 | 2.05904 | 7189 ft | 239 kts | 136° |
| 2026-04-25 22:47 | 49.28226 | 2.07526 | 7219 ft | 241 kts | 141° |
| 2026-04-25 22:47 | 49.26900 | 2.09104 | 7226 ft | 242 kts | 141° |
| 2026-04-25 22:47 | 49.25871 | 2.10313 | 7224 ft | 243 kts | 142° |
| 2026-04-25 22:48 | 49.24688 | 2.11697 | 7223 ft | 243 kts | 142° |
| 2026-04-25 22:48 | 49.23350 | 2.13262 | 7215 ft | 244 kts | 142° |
| 2026-04-25 22:48 | 49.22001 | 2.14837 | 7212 ft | 242 kts | 144° |
| 2026-04-25 22:48 | 49.20471 | 2.15787 | 7216 ft | 239 kts | 174° |
| 2026-04-25 22:49 | 49.18818 | 2.15391 | 7137 ft | 248 kts | 204° |
| 2026-04-25 22:49 | 49.17390 | 2.13873 | 6740 ft | 260 kts | 220° |
| 2026-04-25 22:49 | 49.16012 | 2.11965 | 6204 ft | 268 kts | 220° |
| 2026-04-25 22:49 | 49.14645 | 2.10011 | 5677 ft | 276 kts | 222° |
| 2026-04-25 22:50 | 49.13228 | 2.07958 | 5145 ft | 284 kts | 221° |
| 2026-04-25 22:50 | 49.11805 | 2.05863 | 4621 ft | 291 kts | 222° |
| 2026-04-25 22:50 | 49.10327 | 2.03705 | 4220 ft | 292 kts | 222° |
| 2026-04-25 22:50 | 49.08871 | 2.01597 | 4029 ft | 284 kts | 222° |
| 2026-04-25 22:51 | 49.07474 | 1.99594 | 3991 ft | 270 kts | 218° |
| 2026-04-25 22:51 | 49.05915 | 1.98275 | 3982 ft | 247 kts | 189° |
| 2026-04-25 22:51 | 49.04276 | 1.98334 | 3996 ft | 234 kts | 156° |
| 2026-04-25 22:51 | 49.02950 | 1.99677 | 4005 ft | 227 kts | 125° |
| 2026-04-25 22:52 | 49.02188 | 2.01728 | 4005 ft | 222 kts | 113° |
| 2026-04-25 22:52 | 49.01551 | 2.03878 | 4003 ft | 224 kts | 112° |
| 2026-04-25 22:52 | 49.00922 | 2.06068 | 4003 ft | 226 kts | 112° |
| 2026-04-25 22:52 | 49.00508 | 2.07528 | 4006 ft | 225 kts | 110° |
| 2026-04-25 22:53 | 49.00245 | 2.10542 | 4007 ft | 216 kts | 85° |
| 2026-04-25 22:53 | 49.00354 | 2.12866 | 4008 ft | 221 kts | 85° |
| 2026-04-25 22:53 | 49.00468 | 2.15215 | 4003 ft | 222 kts | 85° |
| 2026-04-25 22:53 | 49.00590 | 2.17556 | 4000 ft | 221 kts | 85° |
| 2026-04-25 22:54 | 49.00703 | 2.19654 | 4001 ft | 221 kts | 85° |
| 2026-04-25 22:54 | 49.00828 | 2.21976 | 3995 ft | 220 kts | 84° |
| 2026-04-25 22:54 | 49.00953 | 2.24295 | 4000 ft | 219 kts | 84° |
| 2026-04-25 22:54 | 49.01080 | 2.26652 | 3710 ft | 224 kts | 84° |
| 2026-04-25 22:55 | 49.01207 | 2.29011 | 3432 ft | 224 kts | 83° |
| 2026-04-25 22:55 | 49.01335 | 2.31374 | 3138 ft | 223 kts | 84° |
| 2026-04-25 22:55 | 49.01459 | 2.33689 | 2883 ft | 220 kts | 84° |
| 2026-04-25 22:55 | 49.01585 | 2.36021 | 2548 ft | 221 kts | 84° |
| 2026-04-25 22:56 | 49.01709 | 2.38343 | 2262 ft | 220 kts | 84° |
| 2026-04-25 22:56 | 49.01836 | 2.40674 | 1956 ft | 219 kts | 84° |
| 2026-04-25 22:56 | 49.01955 | 2.42921 | 1681 ft | 211 kts | 84° |
| 2026-04-25 22:56 | 49.02072 | 2.45090 | 1393 ft | 198 kts | 83° |
| 2026-04-25 22:57 | 49.02178 | 2.47084 | 1124 ft | 181 kts | 83° |
| 2026-04-25 22:57 | 49.02274 | 2.48843 | 903 ft | 165 kts | 82° |
| 2026-04-25 22:57 | 49.02362 | 2.50493 | 621 ft | 149 kts | 82° |
| 2026-04-25 22:57 | 49.02445 | 2.51945 | 403 ft | 135 kts | 82° |
| 2026-04-25 22:58 | 49.02521 | 2.53305 | 368 ft | 116 kts | 87° |
| 2026-04-25 22:58 | 49.02568 | 2.54241 | 365 ft | 63 kts | 85° |
| 2026-04-25 22:58 | 49.02594 | 2.54731 | 367 ft | 41 kts | 85° |
| 2026-04-25 22:58 | 49.02605 | 2.55092 | 365 ft | 22 kts | 96° |
| 2026-04-25 22:59 | 49.02563 | 2.55319 | 367 ft | 23 kts | 111° |
| 2026-04-25 22:59 | 49.02502 | 2.55508 | 366 ft | 1 kts | 116° |
| 2026-04-25 23:00 | 49.02493 | 2.55532 | 368 ft | 6 kts | 119° |
| 2026-04-25 23:00 | 49.02448 | 2.55600 | 368 ft | 13 kts | 158° |
| 2026-04-25 23:00 | 49.02336 | 2.55624 | 360 ft | 18 kts | 174° |
| 2026-04-25 23:00 | 49.02209 | 2.55638 | 365 ft | 14 kts | 176° |
| 2026-04-25 23:01 | 49.02176 | 2.55641 | 365 ft | 0 kts | 176° |
| 2026-04-25 23:02 | 49.02175 | 2.55641 | 365 ft | 0 kts | 176° |
| 2026-04-25 23:02 | 49.02151 | 2.55644 | 364 ft | 7 kts | 174° |
| 2026-04-25 23:02 | 49.02090 | 2.55702 | 362 ft | 14 kts | 115° |
| 2026-04-25 23:02 | 49.02087 | 2.55878 | 359 ft | 19 kts | 85° |
| 2026-04-25 23:03 | 49.02096 | 2.56075 | 360 ft | 19 kts | 86° |
| 2026-04-25 23:03 | 49.02101 | 2.56184 | 365 ft | 6 kts | 86° |
| 2026-04-25 23:03 | 49.02094 | 2.56251 | 363 ft | 7 kts | 112° |
| 2026-04-25 23:03 | 49.02064 | 2.56305 | 368 ft | 7 kts | 136° |
| 2026-04-25 23:04 | 49.02037 | 2.56345 | 366 ft | 6 kts | 131° |
| 2026-04-25 23:04 | 49.02026 | 2.56388 | 368 ft | 7 kts | 98° |
| 2026-04-25 23:04 | 49.02028 | 2.56528 | 365 ft | 12 kts | 89° |
| 2026-04-25 23:04 | 49.02038 | 2.56673 | 364 ft | 16 kts | 81° |
| 2026-04-25 23:05 | 49.02045 | 2.56854 | 365 ft | 19 kts | 87° |
| 2026-04-25 23:05 | 49.02057 | 2.57062 | 359 ft | 21 kts | 85° |
| 2026-04-25 23:05 | 49.02068 | 2.57280 | 362 ft | 21 kts | 86° |
| 2026-04-25 23:05 | 49.02078 | 2.57498 | 365 ft | 21 kts | 86° |
| 2026-04-25 23:06 | 49.02092 | 2.57713 | 361 ft | 21 kts | 91° |
| 2026-04-25 23:06 | 49.02051 | 2.57921 | 365 ft | 21 kts | 124° |
| 2026-04-25 23:06 | 49.01949 | 2.58072 | 365 ft | 21 kts | 149° |
| 2026-04-25 23:06 | 49.01811 | 2.58126 | 362 ft | 18 kts | 175° |
| 2026-04-25 23:07 | 49.01719 | 2.58139 | 366 ft | 13 kts | 174° |
| 2026-04-25 23:07 | 49.01625 | 2.58148 | 365 ft | 14 kts | 176° |
| 2026-04-25 23:07 | 49.01527 | 2.58155 | 359 ft | 14 kts | 177° |
| 2026-04-25 23:07 | 49.01433 | 2.58168 | 363 ft | 10 kts | 174° |
| 2026-04-25 23:08 | 49.01409 | 2.58172 | 361 ft | 0 kts | 174° |
| 2026-04-25 23:08 | 49.01403 | 2.58173 | 362 ft | 1 kts | 174° |
| 2026-04-25 23:08 | 49.01390 | 2.58175 | 361 ft | 2 kts | 174° |
| 2026-04-25 23:08 | 49.01370 | 2.58178 | 361 ft | 3 kts | 174° |
| 2026-04-25 23:09 | 49.01344 | 2.58182 | 366 ft | 4 kts | 174° |
| 2026-04-25 23:09 | 49.01311 | 2.58187 | 364 ft | 5 kts | 174° |
| 2026-04-25 23:09 | 49.01277 | 2.58192 | 361 ft | 1 kts | 174° |
| 2026-04-25 23:09 | 49.01269 | 2.58193 | 363 ft | 2 kts | 174° |
| 2026-04-25 23:10 | 49.01259 | 2.58195 | 364 ft | 1 kts | 174° |
| 2026-04-25 23:10 | 49.01248 | 2.58196 | 362 ft | 2 kts | 174° |
| 2026-04-25 23:10 | 49.01230 | 2.58199 | 366 ft | 3 kts | 174° |
| 2026-04-25 23:10 | 49.01206 | 2.58203 | 364 ft | 4 kts | 174° |
| 2026-04-25 23:11 | 49.01176 | 2.58207 | 362 ft | 5 kts | 175° |
| 2026-04-25 23:11 | 49.01139 | 2.58212 | 365 ft | 6 kts | 175° |
| 2026-04-25 23:11 | 49.01095 | 2.58218 | 363 ft | 7 kts | 175° |
| 2026-04-25 23:11 | 49.01047 | 2.58224 | 359 ft | 8 kts | 175° |
| 2026-04-25 23:12 | 49.00992 | 2.58230 | 367 ft | 8 kts | 175° |
| 2026-04-25 23:12 | 49.00932 | 2.58242 | 359 ft | 9 kts | 171° |
| 2026-04-25 23:12 | 49.00868 | 2.58261 | 363 ft | 10 kts | 164° |
| 2026-04-25 23:12 | 49.00837 | 2.58307 | 366 ft | 10 kts | 113° |
| 2026-04-25 23:13 | 49.00835 | 2.58411 | 359 ft | 10 kts | 89° |
| 2026-04-25 23:13 | 49.00839 | 2.58517 | 367 ft | 10 kts | 84° |
| 2026-04-25 23:13 | 49.00846 | 2.58624 | 361 ft | 10 kts | 84° |
| 2026-04-25 23:13 | 49.00850 | 2.58731 | 365 ft | 10 kts | 96° |
| 2026-04-25 23:14 | 49.00827 | 2.58790 | 368 ft | 0 kts | 147° |
| 2026-04-25 23:16 | 49.00807 | 2.58803 | 367 ft | 7 kts | 162° |
| 2026-04-25 23:17 | 49.00737 | 2.58816 | 363 ft | 10 kts | 178° |
| 2026-04-25 23:17 | 49.00716 | 2.58819 | 361 ft | 3 kts | 172° |
| 2026-04-25 23:17 | 49.00702 | 2.58835 | 368 ft | 1 kts | 129° |
| 2026-04-25 23:17 | 49.00699 | 2.58861 | 364 ft | 4 kts | 97° |
| 2026-04-25 23:18 | 49.00701 | 2.58915 | 362 ft | 6 kts | 84° |
| 2026-04-25 23:18 | 49.00702 | 2.58931 | 361 ft | 0 kts | 84° |